<?xml version="1.0" encoding="UTF-8"?><gpx xmlns="http://www.topografix.com/GPX/1/1" version="1.1" creator="iOrient"><trk><name>Большая прогулка. Первая гонка</name><trkseg><trkpt lat="55.8344941" lon="48.9579557"><time>2021-04-17T07:14:21.827</time></trkpt><trkpt lat="55.8345536" lon="48.9579048"><time>2021-04-17T07:14:23.810</time></trkpt><trkpt lat="55.8346150" lon="48.9578664"><time>2021-04-17T07:14:25.820</time></trkpt><trkpt lat="55.8346854" lon="48.9578734"><time>2021-04-17T07:14:27.830</time></trkpt><trkpt lat="55.8347579" lon="48.9579152"><time>2021-04-17T07:14:29.827</time></trkpt><trkpt lat="55.8348165" lon="48.9579299"><time>2021-04-17T07:14:31.827</time></trkpt><trkpt lat="55.8348773" lon="48.9579387"><time>2021-04-17T07:14:33.853</time></trkpt><trkpt lat="55.8349440" lon="48.9579079"><time>2021-04-17T07:14:35.840</time></trkpt><trkpt lat="55.8349922" lon="48.9578366"><time>2021-04-17T07:14:37.823</time></trkpt><trkpt lat="55.8350397" lon="48.9577697"><time>2021-04-17T07:14:39.870</time></trkpt><trkpt lat="55.8350952" lon="48.9577478"><time>2021-04-17T07:14:41.830</time></trkpt><trkpt lat="55.8351440" lon="48.9577355"><time>2021-04-17T07:14:45.837</time></trkpt><trkpt lat="55.8351934" lon="48.9577750"><time>2021-04-17T07:14:49.833</time></trkpt><trkpt lat="55.8352362" lon="48.9578259"><time>2021-04-17T07:14:52.830</time></trkpt><trkpt lat="55.8352833" lon="48.9578461"><time>2021-04-17T07:14:54.860</time></trkpt><trkpt lat="55.8353494" lon="48.9578886"><time>2021-04-17T07:14:58.810</time></trkpt><trkpt lat="55.8354160" lon="48.9578954"><time>2021-04-17T07:15:01.847</time></trkpt><trkpt lat="55.8354797" lon="48.9578978"><time>2021-04-17T07:15:03.797</time></trkpt><trkpt lat="55.8355592" lon="48.9578540"><time>2021-04-17T07:15:05.830</time></trkpt><trkpt lat="55.8356319" lon="48.9578109"><time>2021-04-17T07:15:07.800</time></trkpt><trkpt lat="55.8357150" lon="48.9578135"><time>2021-04-17T07:15:09.797</time></trkpt><trkpt lat="55.8357667" lon="48.9578257"><time>2021-04-17T07:15:11.833</time></trkpt><trkpt lat="55.8358474" lon="48.9578312"><time>2021-04-17T07:15:13.817</time></trkpt><trkpt lat="55.8359249" lon="48.9578476"><time>2021-04-17T07:15:15.847</time></trkpt><trkpt lat="55.8359983" lon="48.9578745"><time>2021-04-17T07:15:17.833</time></trkpt><trkpt lat="55.8360707" lon="48.9579089"><time>2021-04-17T07:15:19.833</time></trkpt><trkpt lat="55.8361374" lon="48.9579490"><time>2021-04-17T07:15:21.837</time></trkpt><trkpt lat="55.8361971" lon="48.9579725"><time>2021-04-17T07:15:23.813</time></trkpt><trkpt lat="55.8362629" lon="48.9580152"><time>2021-04-17T07:15:25.807</time></trkpt><trkpt lat="55.8363316" lon="48.9580571"><time>2021-04-17T07:15:27.833</time></trkpt><trkpt lat="55.8363908" lon="48.9580809"><time>2021-04-17T07:15:29.807</time></trkpt><trkpt lat="55.8364501" lon="48.9580993"><time>2021-04-17T07:15:31.837</time></trkpt><trkpt lat="55.8364979" lon="48.9581109"><time>2021-04-17T07:15:33.833</time></trkpt><trkpt lat="55.8365459" lon="48.9581440"><time>2021-04-17T07:15:35.840</time></trkpt><trkpt lat="55.8365899" lon="48.9581747"><time>2021-04-17T07:15:37.813</time></trkpt><trkpt lat="55.8366579" lon="48.9581214"><time>2021-04-17T07:15:39.833</time></trkpt><trkpt lat="55.8367079" lon="48.9580746"><time>2021-04-17T07:15:41.800</time></trkpt><trkpt lat="55.8367686" lon="48.9580117"><time>2021-04-17T07:15:43.803</time></trkpt><trkpt lat="55.8368125" lon="48.9579729"><time>2021-04-17T07:15:44.837</time></trkpt><trkpt lat="55.8368554" lon="48.9579127"><time>2021-04-17T07:15:45.830</time></trkpt><trkpt lat="55.8368986" lon="48.9578751"><time>2021-04-17T07:15:46.870</time></trkpt><trkpt lat="55.8369503" lon="48.9578540"><time>2021-04-17T07:15:48.830</time></trkpt><trkpt lat="55.8370124" lon="48.9578511"><time>2021-04-17T07:15:50.860</time></trkpt><trkpt lat="55.8370786" lon="48.9578450"><time>2021-04-17T07:15:52.837</time></trkpt><trkpt lat="55.8371433" lon="48.9578951"><time>2021-04-17T07:15:54.833</time></trkpt><trkpt lat="55.8371951" lon="48.9579175"><time>2021-04-17T07:15:57.817</time></trkpt><trkpt lat="55.8372569" lon="48.9579004"><time>2021-04-17T07:16:01.813</time></trkpt><trkpt lat="55.8372992" lon="48.9579291"><time>2021-04-17T07:16:04.797</time></trkpt><trkpt lat="55.8372671" lon="48.9579795"><time>2021-04-17T07:16:16.253</time></trkpt><trkpt lat="55.8372649" lon="48.9579841"><time>2021-04-17T07:16:16.797</time></trkpt><trkpt lat="55.8372939" lon="48.9578638"><time>2021-04-17T07:16:35.820</time></trkpt><trkpt lat="55.8373324" lon="48.9577786"><time>2021-04-17T07:16:37.813</time></trkpt><trkpt lat="55.8373791" lon="48.9576913"><time>2021-04-17T07:16:39.807</time></trkpt><trkpt lat="55.8374040" lon="48.9576122"><time>2021-04-17T07:16:41.813</time></trkpt><trkpt lat="55.8374326" lon="48.9575102"><time>2021-04-17T07:16:43.803</time></trkpt><trkpt lat="55.8374620" lon="48.9574006"><time>2021-04-17T07:16:45.793</time></trkpt><trkpt lat="55.8375160" lon="48.9572825"><time>2021-04-17T07:16:47.813</time></trkpt><trkpt lat="55.8375511" lon="48.9571864"><time>2021-04-17T07:16:49.820</time></trkpt><trkpt lat="55.8375822" lon="48.9570856"><time>2021-04-17T07:16:51.800</time></trkpt><trkpt lat="55.8375955" lon="48.9569960"><time>2021-04-17T07:16:53.800</time></trkpt><trkpt lat="55.8376274" lon="48.9568875"><time>2021-04-17T07:16:55.803</time></trkpt><trkpt lat="55.8376759" lon="48.9568099"><time>2021-04-17T07:16:57.823</time></trkpt><trkpt lat="55.8377318" lon="48.9567409"><time>2021-04-17T07:16:59.827</time></trkpt><trkpt lat="55.8378110" lon="48.9566773"><time>2021-04-17T07:17:01.827</time></trkpt><trkpt lat="55.8378640" lon="48.9566031"><time>2021-04-17T07:17:03.843</time></trkpt><trkpt lat="55.8379080" lon="48.9565194"><time>2021-04-17T07:17:05.817</time></trkpt><trkpt lat="55.8379508" lon="48.9564212"><time>2021-04-17T07:17:07.833</time></trkpt><trkpt lat="55.8379940" lon="48.9563081"><time>2021-04-17T07:17:09.830</time></trkpt><trkpt lat="55.8380304" lon="48.9562247"><time>2021-04-17T07:17:11.843</time></trkpt><trkpt lat="55.8380578" lon="48.9561516"><time>2021-04-17T07:17:13.830</time></trkpt><trkpt lat="55.8381134" lon="48.9560899"><time>2021-04-17T07:17:16.830</time></trkpt><trkpt lat="55.8381447" lon="48.9560239"><time>2021-04-17T07:17:18.827</time></trkpt><trkpt lat="55.8381936" lon="48.9559490"><time>2021-04-17T07:17:20.863</time></trkpt><trkpt lat="55.8382380" lon="48.9559005"><time>2021-04-17T07:17:22.857</time></trkpt><trkpt lat="55.8382891" lon="48.9558480"><time>2021-04-17T07:17:24.853</time></trkpt><trkpt lat="55.8383397" lon="48.9558016"><time>2021-04-17T07:17:26.820</time></trkpt><trkpt lat="55.8383724" lon="48.9557211"><time>2021-04-17T07:17:28.840</time></trkpt><trkpt lat="55.8384193" lon="48.9556456"><time>2021-04-17T07:17:30.843</time></trkpt><trkpt lat="55.8384583" lon="48.9555677"><time>2021-04-17T07:17:32.837</time></trkpt><trkpt lat="55.8384868" lon="48.9554734"><time>2021-04-17T07:17:34.877</time></trkpt><trkpt lat="55.8385060" lon="48.9553829"><time>2021-04-17T07:17:36.820</time></trkpt><trkpt lat="55.8385293" lon="48.9553059"><time>2021-04-17T07:17:38.833</time></trkpt><trkpt lat="55.8385868" lon="48.9552512"><time>2021-04-17T07:17:41.843</time></trkpt><trkpt lat="55.8386302" lon="48.9551996"><time>2021-04-17T07:17:43.823</time></trkpt><trkpt lat="55.8386782" lon="48.9551501"><time>2021-04-17T07:17:46.803</time></trkpt><trkpt lat="55.8387112" lon="48.9550602"><time>2021-04-17T07:17:49.867</time></trkpt><trkpt lat="55.8387369" lon="48.9549869"><time>2021-04-17T07:17:51.843</time></trkpt><trkpt lat="55.8387715" lon="48.9549110"><time>2021-04-17T07:17:54.827</time></trkpt><trkpt lat="55.8387983" lon="48.9548437"><time>2021-04-17T07:17:57.807</time></trkpt><trkpt lat="55.8388223" lon="48.9547705"><time>2021-04-17T07:18:00.807</time></trkpt><trkpt lat="55.8388240" lon="48.9546740"><time>2021-04-17T07:18:03.837</time></trkpt><trkpt lat="55.8388177" lon="48.9545898"><time>2021-04-17T07:18:07.850</time></trkpt><trkpt lat="55.8388611" lon="48.9545535"><time>2021-04-17T07:18:13.837</time></trkpt><trkpt lat="55.8389134" lon="48.9545594"><time>2021-04-17T07:18:19.833</time></trkpt><trkpt lat="55.8389495" lon="48.9545070"><time>2021-04-17T07:18:29.823</time></trkpt><trkpt lat="55.8389545" lon="48.9543819"><time>2021-04-17T07:18:32.827</time></trkpt><trkpt lat="55.8389695" lon="48.9543044"><time>2021-04-17T07:18:34.827</time></trkpt><trkpt lat="55.8389869" lon="48.9541978"><time>2021-04-17T07:18:37.853</time></trkpt><trkpt lat="55.8389823" lon="48.9540970"><time>2021-04-17T07:18:40.813</time></trkpt><trkpt lat="55.8389966" lon="48.9540054"><time>2021-04-17T07:18:43.857</time></trkpt><trkpt lat="55.8389969" lon="48.9539223"><time>2021-04-17T07:18:46.850</time></trkpt><trkpt lat="55.8389954" lon="48.9538313"><time>2021-04-17T07:18:51.837</time></trkpt><trkpt lat="55.8389971" lon="48.9537365"><time>2021-04-17T07:18:55.790</time></trkpt><trkpt lat="55.8390123" lon="48.9536257"><time>2021-04-17T07:18:59.817</time></trkpt><trkpt lat="55.8390188" lon="48.9535156"><time>2021-04-17T07:19:02.833</time></trkpt><trkpt lat="55.8390241" lon="48.9534301"><time>2021-04-17T07:19:05.830</time></trkpt><trkpt lat="55.8390445" lon="48.9533560"><time>2021-04-17T07:19:09.830</time></trkpt><trkpt lat="55.8390825" lon="48.9533033"><time>2021-04-17T07:19:15.820</time></trkpt><trkpt lat="55.8390891" lon="48.9533058"><time>2021-04-17T07:19:17.020</time></trkpt><trkpt lat="55.8390680" lon="48.9532223"><time>2021-04-17T07:19:24.820</time></trkpt><trkpt lat="55.8391182" lon="48.9531971"><time>2021-04-17T07:19:28.837</time></trkpt><trkpt lat="55.8391616" lon="48.9532370"><time>2021-04-17T07:19:30.827</time></trkpt><trkpt lat="55.8391794" lon="48.9533140"><time>2021-04-17T07:19:37.833</time></trkpt><trkpt lat="55.8392231" lon="48.9534186"><time>2021-04-17T07:19:44.823</time></trkpt><trkpt lat="55.8392558" lon="48.9534997"><time>2021-04-17T07:19:46.813</time></trkpt><trkpt lat="55.8393169" lon="48.9535240"><time>2021-04-17T07:19:49.817</time></trkpt><trkpt lat="55.8393637" lon="48.9535053"><time>2021-04-17T07:19:51.820</time></trkpt><trkpt lat="55.8394335" lon="48.9535501"><time>2021-04-17T07:19:54.827</time></trkpt><trkpt lat="55.8394766" lon="48.9536075"><time>2021-04-17T07:19:56.837</time></trkpt><trkpt lat="55.8394694" lon="48.9537159"><time>2021-04-17T07:19:59.847</time></trkpt><trkpt lat="55.8394393" lon="48.9537901"><time>2021-04-17T07:20:02.803</time></trkpt><trkpt lat="55.8394034" lon="48.9538975"><time>2021-04-17T07:20:05.830</time></trkpt><trkpt lat="55.8393611" lon="48.9539709"><time>2021-04-17T07:20:08.803</time></trkpt><trkpt lat="55.8393799" lon="48.9540501"><time>2021-04-17T07:20:13.827</time></trkpt><trkpt lat="55.8394031" lon="48.9541260"><time>2021-04-17T07:20:16.810</time></trkpt><trkpt lat="55.8394525" lon="48.9541956"><time>2021-04-17T07:20:22.820</time></trkpt><trkpt lat="55.8394867" lon="48.9542746"><time>2021-04-17T07:20:25.823</time></trkpt><trkpt lat="55.8395336" lon="48.9543166"><time>2021-04-17T07:20:29.823</time></trkpt><trkpt lat="55.8395771" lon="48.9543947"><time>2021-04-17T07:20:33.800</time></trkpt><trkpt lat="55.8396030" lon="48.9544856"><time>2021-04-17T07:20:36.803</time></trkpt><trkpt lat="55.8396197" lon="48.9546028"><time>2021-04-17T07:20:39.810</time></trkpt><trkpt lat="55.8396102" lon="48.9547163"><time>2021-04-17T07:20:41.837</time></trkpt><trkpt lat="55.8396192" lon="48.9548303"><time>2021-04-17T07:20:44.837</time></trkpt><trkpt lat="55.8396421" lon="48.9549153"><time>2021-04-17T07:20:47.853</time></trkpt><trkpt lat="55.8396230" lon="48.9549902"><time>2021-04-17T07:20:51.877</time></trkpt><trkpt lat="55.8395995" lon="48.9550694"><time>2021-04-17T07:20:53.833</time></trkpt><trkpt lat="55.8395665" lon="48.9551413"><time>2021-04-17T07:20:55.827</time></trkpt><trkpt lat="55.8395248" lon="48.9552115"><time>2021-04-17T07:20:57.820</time></trkpt><trkpt lat="55.8394761" lon="48.9552635"><time>2021-04-17T07:20:59.837</time></trkpt><trkpt lat="55.8394444" lon="48.9553305"><time>2021-04-17T07:21:01.843</time></trkpt><trkpt lat="55.8394274" lon="48.9554406"><time>2021-04-17T07:21:03.853</time></trkpt><trkpt lat="55.8394060" lon="48.9555343"><time>2021-04-17T07:21:05.843</time></trkpt><trkpt lat="55.8393764" lon="48.9556199"><time>2021-04-17T07:21:07.843</time></trkpt><trkpt lat="55.8393500" lon="48.9556932"><time>2021-04-17T07:21:09.803</time></trkpt><trkpt lat="55.8393279" lon="48.9557670"><time>2021-04-17T07:21:11.810</time></trkpt><trkpt lat="55.8393068" lon="48.9558378"><time>2021-04-17T07:21:14.807</time></trkpt><trkpt lat="55.8392711" lon="48.9559232"><time>2021-04-17T07:21:17.867</time></trkpt><trkpt lat="55.8392441" lon="48.9560044"><time>2021-04-17T07:21:20.807</time></trkpt><trkpt lat="55.8392167" lon="48.9561144"><time>2021-04-17T07:21:23.833</time></trkpt><trkpt lat="55.8391942" lon="48.9561915"><time>2021-04-17T07:21:25.810</time></trkpt><trkpt lat="55.8391615" lon="48.9562698"><time>2021-04-17T07:21:28.797</time></trkpt><trkpt lat="55.8391285" lon="48.9563519"><time>2021-04-17T07:21:32.853</time></trkpt><trkpt lat="55.8390962" lon="48.9564220"><time>2021-04-17T07:21:36.823</time></trkpt><trkpt lat="55.8390555" lon="48.9564969"><time>2021-04-17T07:21:39.827</time></trkpt><trkpt lat="55.8390104" lon="48.9565566"><time>2021-04-17T07:21:41.853</time></trkpt><trkpt lat="55.8389495" lon="48.9566146"><time>2021-04-17T07:21:43.833</time></trkpt><trkpt lat="55.8389005" lon="48.9566530"><time>2021-04-17T07:21:45.833</time></trkpt><trkpt lat="55.8388535" lon="48.9567136"><time>2021-04-17T07:21:47.847</time></trkpt><trkpt lat="55.8388078" lon="48.9567958"><time>2021-04-17T07:21:49.843</time></trkpt><trkpt lat="55.8387701" lon="48.9568601"><time>2021-04-17T07:21:51.850</time></trkpt><trkpt lat="55.8387193" lon="48.9569324"><time>2021-04-17T07:21:53.847</time></trkpt><trkpt lat="55.8386766" lon="48.9569864"><time>2021-04-17T07:21:55.860</time></trkpt><trkpt lat="55.8386431" lon="48.9570538"><time>2021-04-17T07:21:57.847</time></trkpt><trkpt lat="55.8386153" lon="48.9571251"><time>2021-04-17T07:21:59.857</time></trkpt><trkpt lat="55.8385785" lon="48.9572116"><time>2021-04-17T07:22:02.863</time></trkpt><trkpt lat="55.8385447" lon="48.9572930"><time>2021-04-17T07:22:05.850</time></trkpt><trkpt lat="55.8385087" lon="48.9573699"><time>2021-04-17T07:22:08.850</time></trkpt><trkpt lat="55.8384595" lon="48.9574354"><time>2021-04-17T07:22:11.897</time></trkpt><trkpt lat="55.8384207" lon="48.9575049"><time>2021-04-17T07:22:15.840</time></trkpt><trkpt lat="55.8383855" lon="48.9575764"><time>2021-04-17T07:22:19.860</time></trkpt><trkpt lat="55.8383582" lon="48.9576419"><time>2021-04-17T07:22:21.813</time></trkpt><trkpt lat="55.8383410" lon="48.9577270"><time>2021-04-17T07:22:23.807</time></trkpt><trkpt lat="55.8383290" lon="48.9578077"><time>2021-04-17T07:22:25.833</time></trkpt><trkpt lat="55.8383194" lon="48.9578859"><time>2021-04-17T07:22:27.837</time></trkpt><trkpt lat="55.8383088" lon="48.9579743"><time>2021-04-17T07:22:29.853</time></trkpt><trkpt lat="55.8382951" lon="48.9580629"><time>2021-04-17T07:22:31.850</time></trkpt><trkpt lat="55.8382659" lon="48.9581621"><time>2021-04-17T07:22:33.850</time></trkpt><trkpt lat="55.8382394" lon="48.9582742"><time>2021-04-17T07:22:36.817</time></trkpt><trkpt lat="55.8382170" lon="48.9583869"><time>2021-04-17T07:22:39.823</time></trkpt><trkpt lat="55.8382084" lon="48.9584844"><time>2021-04-17T07:22:41.833</time></trkpt><trkpt lat="55.8381937" lon="48.9585872"><time>2021-04-17T07:22:43.830</time></trkpt><trkpt lat="55.8381689" lon="48.9586715"><time>2021-04-17T07:22:45.813</time></trkpt><trkpt lat="55.8381185" lon="48.9587103"><time>2021-04-17T07:22:48.827</time></trkpt><trkpt lat="55.8380621" lon="48.9587855"><time>2021-04-17T07:22:51.830</time></trkpt><trkpt lat="55.8380317" lon="48.9588595"><time>2021-04-17T07:22:53.837</time></trkpt><trkpt lat="55.8380097" lon="48.9589547"><time>2021-04-17T07:22:56.837</time></trkpt><trkpt lat="55.8379548" lon="48.9589965"><time>2021-04-17T07:22:59.843</time></trkpt><trkpt lat="55.8379060" lon="48.9590346"><time>2021-04-17T07:23:02.817</time></trkpt><trkpt lat="55.8378741" lon="48.9590969"><time>2021-04-17T07:23:08.797</time></trkpt><trkpt lat="55.8378647" lon="48.9591036"><time>2021-04-17T07:23:13.290</time></trkpt><trkpt lat="55.8379406" lon="48.9591219"><time>2021-04-17T07:23:50.837</time></trkpt><trkpt lat="55.8379501" lon="48.9592019"><time>2021-04-17T07:23:54.850</time></trkpt><trkpt lat="55.8379613" lon="48.9593253"><time>2021-04-17T07:23:57.837</time></trkpt><trkpt lat="55.8380017" lon="48.9593781"><time>2021-04-17T07:24:01.823</time></trkpt><trkpt lat="55.8379976" lon="48.9594714"><time>2021-04-17T07:24:04.853</time></trkpt><trkpt lat="55.8379675" lon="48.9595760"><time>2021-04-17T07:24:06.830</time></trkpt><trkpt lat="55.8379453" lon="48.9596773"><time>2021-04-17T07:24:09.827</time></trkpt><trkpt lat="55.8379386" lon="48.9598309"><time>2021-04-17T07:24:11.823</time></trkpt><trkpt lat="55.8379368" lon="48.9599507"><time>2021-04-17T07:24:13.823</time></trkpt><trkpt lat="55.8379407" lon="48.9600320"><time>2021-04-17T07:24:15.820</time></trkpt><trkpt lat="55.8379446" lon="48.9601376"><time>2021-04-17T07:24:18.853</time></trkpt><trkpt lat="55.8379401" lon="48.9602204"><time>2021-04-17T07:24:25.857</time></trkpt><trkpt lat="55.8379467" lon="48.9603153"><time>2021-04-17T07:24:28.853</time></trkpt><trkpt lat="55.8379764" lon="48.9604112"><time>2021-04-17T07:24:31.820</time></trkpt><trkpt lat="55.8379778" lon="48.9605076"><time>2021-04-17T07:24:32.820</time></trkpt><trkpt lat="55.8379614" lon="48.9605976"><time>2021-04-17T07:24:40.830</time></trkpt><trkpt lat="55.8379643" lon="48.9606832"><time>2021-04-17T07:24:44.840</time></trkpt><trkpt lat="55.8379895" lon="48.9607529"><time>2021-04-17T07:24:46.827</time></trkpt><trkpt lat="55.8379941" lon="48.9608473"><time>2021-04-17T07:24:48.827</time></trkpt><trkpt lat="55.8379875" lon="48.9609281"><time>2021-04-17T07:24:51.857</time></trkpt><trkpt lat="55.8379910" lon="48.9610403"><time>2021-04-17T07:24:54.820</time></trkpt><trkpt lat="55.8380212" lon="48.9612327"><time>2021-04-17T07:24:56.823</time></trkpt><trkpt lat="55.8380098" lon="48.9613276"><time>2021-04-17T07:25:00.897</time></trkpt><trkpt lat="55.8379960" lon="48.9614696"><time>2021-04-17T07:25:04.820</time></trkpt><trkpt lat="55.8380000" lon="48.9616010"><time>2021-04-17T07:25:06.907</time></trkpt><trkpt lat="55.8379993" lon="48.9617239"><time>2021-04-17T07:25:08.833</time></trkpt><trkpt lat="55.8379913" lon="48.9618253"><time>2021-04-17T07:25:10.850</time></trkpt><trkpt lat="55.8379944" lon="48.9619341"><time>2021-04-17T07:25:12.840</time></trkpt><trkpt lat="55.8379928" lon="48.9620342"><time>2021-04-17T07:25:14.827</time></trkpt><trkpt lat="55.8379647" lon="48.9621258"><time>2021-04-17T07:25:16.887</time></trkpt><trkpt lat="55.8379467" lon="48.9622009"><time>2021-04-17T07:25:18.870</time></trkpt><trkpt lat="55.8379339" lon="48.9623161"><time>2021-04-17T07:25:21.823</time></trkpt><trkpt lat="55.8379269" lon="48.9624357"><time>2021-04-17T07:25:24.827</time></trkpt><trkpt lat="55.8379170" lon="48.9625461"><time>2021-04-17T07:25:27.843</time></trkpt><trkpt lat="55.8379044" lon="48.9626369"><time>2021-04-17T07:25:29.820</time></trkpt><trkpt lat="55.8378912" lon="48.9627219"><time>2021-04-17T07:25:32.410</time></trkpt><trkpt lat="55.8378882" lon="48.9628024"><time>2021-04-17T07:25:33.820</time></trkpt><trkpt lat="55.8378691" lon="48.9629216"><time>2021-04-17T07:25:36.807</time></trkpt><trkpt lat="55.8378502" lon="48.9630050"><time>2021-04-17T07:25:38.807</time></trkpt><trkpt lat="55.8378300" lon="48.9631168"><time>2021-04-17T07:25:41.803</time></trkpt><trkpt lat="55.8378175" lon="48.9632177"><time>2021-04-17T07:25:44.833</time></trkpt><trkpt lat="55.8378119" lon="48.9632992"><time>2021-04-17T07:25:46.820</time></trkpt><trkpt lat="55.8378055" lon="48.9633896"><time>2021-04-17T07:25:48.820</time></trkpt><trkpt lat="55.8377991" lon="48.9634959"><time>2021-04-17T07:25:51.813</time></trkpt><trkpt lat="55.8377889" lon="48.9636039"><time>2021-04-17T07:25:54.807</time></trkpt><trkpt lat="55.8377677" lon="48.9636889"><time>2021-04-17T07:25:59.900</time></trkpt><trkpt lat="55.8377489" lon="48.9638144"><time>2021-04-17T07:26:02.823</time></trkpt><trkpt lat="55.8377484" lon="48.9638954"><time>2021-04-17T07:26:04.827</time></trkpt><trkpt lat="55.8377346" lon="48.9639985"><time>2021-04-17T07:26:07.820</time></trkpt><trkpt lat="55.8377148" lon="48.9641011"><time>2021-04-17T07:26:10.807</time></trkpt><trkpt lat="55.8376993" lon="48.9641915"><time>2021-04-17T07:26:13.807</time></trkpt><trkpt lat="55.8376791" lon="48.9642765"><time>2021-04-17T07:26:16.813</time></trkpt><trkpt lat="55.8376738" lon="48.9643886"><time>2021-04-17T07:26:19.830</time></trkpt><trkpt lat="55.8376675" lon="48.9644943"><time>2021-04-17T07:26:22.830</time></trkpt><trkpt lat="55.8376675" lon="48.9645763"><time>2021-04-17T07:26:25.830</time></trkpt><trkpt lat="55.8376535" lon="48.9646541"><time>2021-04-17T07:26:28.817</time></trkpt><trkpt lat="55.8376591" lon="48.9647566"><time>2021-04-17T07:26:35.890</time></trkpt><trkpt lat="55.8376697" lon="48.9648429"><time>2021-04-17T07:26:38.827</time></trkpt><trkpt lat="55.8376690" lon="48.9649282"><time>2021-04-17T07:26:41.830</time></trkpt><trkpt lat="55.8376504" lon="48.9650167"><time>2021-04-17T07:26:45.903</time></trkpt><trkpt lat="55.8376394" lon="48.9650973"><time>2021-04-17T07:26:49.960</time></trkpt><trkpt lat="55.8376170" lon="48.9651882"><time>2021-04-17T07:26:53.833</time></trkpt><trkpt lat="55.8376044" lon="48.9652899"><time>2021-04-17T07:26:57.873</time></trkpt><trkpt lat="55.8376088" lon="48.9653905"><time>2021-04-17T07:27:01.873</time></trkpt><trkpt lat="55.8375968" lon="48.9654817"><time>2021-04-17T07:27:04.870</time></trkpt><trkpt lat="55.8375770" lon="48.9655643"><time>2021-04-17T07:27:07.880</time></trkpt><trkpt lat="55.8375609" lon="48.9656513"><time>2021-04-17T07:27:10.887</time></trkpt><trkpt lat="55.8375538" lon="48.9657311"><time>2021-04-17T07:27:12.877</time></trkpt><trkpt lat="55.8375431" lon="48.9658300"><time>2021-04-17T07:27:14.877</time></trkpt><trkpt lat="55.8375242" lon="48.9659245"><time>2021-04-17T07:27:16.877</time></trkpt><trkpt lat="55.8375046" lon="48.9660168"><time>2021-04-17T07:27:18.867</time></trkpt><trkpt lat="55.8374807" lon="48.9661155"><time>2021-04-17T07:27:20.873</time></trkpt><trkpt lat="55.8374614" lon="48.9662196"><time>2021-04-17T07:27:22.873</time></trkpt><trkpt lat="55.8374384" lon="48.9663122"><time>2021-04-17T07:27:24.870</time></trkpt><trkpt lat="55.8374130" lon="48.9664142"><time>2021-04-17T07:27:26.883</time></trkpt><trkpt lat="55.8373813" lon="48.9665091"><time>2021-04-17T07:27:28.867</time></trkpt><trkpt lat="55.8373600" lon="48.9665858"><time>2021-04-17T07:27:30.877</time></trkpt><trkpt lat="55.8373291" lon="48.9666695"><time>2021-04-17T07:27:33.873</time></trkpt><trkpt lat="55.8373136" lon="48.9667694"><time>2021-04-17T07:27:36.873</time></trkpt><trkpt lat="55.8373080" lon="48.9668776"><time>2021-04-17T07:27:38.867</time></trkpt><trkpt lat="55.8372952" lon="48.9669812"><time>2021-04-17T07:27:40.867</time></trkpt><trkpt lat="55.8372805" lon="48.9670772"><time>2021-04-17T07:27:42.870</time></trkpt><trkpt lat="55.8372694" lon="48.9671730"><time>2021-04-17T07:27:44.873</time></trkpt><trkpt lat="55.8372452" lon="48.9672818"><time>2021-04-17T07:27:46.873</time></trkpt><trkpt lat="55.8372242" lon="48.9673778"><time>2021-04-17T07:27:48.887</time></trkpt><trkpt lat="55.8372068" lon="48.9674764"><time>2021-04-17T07:27:50.877</time></trkpt><trkpt lat="55.8371849" lon="48.9675788"><time>2021-04-17T07:27:52.873</time></trkpt><trkpt lat="55.8371679" lon="48.9676891"><time>2021-04-17T07:27:54.910</time></trkpt><trkpt lat="55.8371520" lon="48.9677957"><time>2021-04-17T07:27:56.880</time></trkpt><trkpt lat="55.8371351" lon="48.9678997"><time>2021-04-17T07:27:58.877</time></trkpt><trkpt lat="55.8371093" lon="48.9680006"><time>2021-04-17T07:28:00.873</time></trkpt><trkpt lat="55.8370917" lon="48.9681009"><time>2021-04-17T07:28:02.867</time></trkpt><trkpt lat="55.8370716" lon="48.9681966"><time>2021-04-17T07:28:04.873</time></trkpt><trkpt lat="55.8370614" lon="48.9682835"><time>2021-04-17T07:28:06.893</time></trkpt><trkpt lat="55.8370478" lon="48.9683780"><time>2021-04-17T07:28:09.870</time></trkpt><trkpt lat="55.8370314" lon="48.9684731"><time>2021-04-17T07:28:10.863</time></trkpt><trkpt lat="55.8370115" lon="48.9685541"><time>2021-04-17T07:28:12.833</time></trkpt><trkpt lat="55.8369837" lon="48.9686334"><time>2021-04-17T07:28:14.803</time></trkpt><trkpt lat="55.8369603" lon="48.9687037"><time>2021-04-17T07:28:16.810</time></trkpt><trkpt lat="55.8369172" lon="48.9687728"><time>2021-04-17T07:28:19.807</time></trkpt><trkpt lat="55.8368859" lon="48.9688461"><time>2021-04-17T07:28:22.803</time></trkpt><trkpt lat="55.8368599" lon="48.9689218"><time>2021-04-17T07:28:25.800</time></trkpt><trkpt lat="55.8368353" lon="48.9690048"><time>2021-04-17T07:28:28.807</time></trkpt><trkpt lat="55.8368102" lon="48.9690938"><time>2021-04-17T07:28:31.797</time></trkpt><trkpt lat="55.8368120" lon="48.9691776"><time>2021-04-17T07:28:33.830</time></trkpt><trkpt lat="55.8368004" lon="48.9692692"><time>2021-04-17T07:28:35.837</time></trkpt><trkpt lat="55.8367641" lon="48.9693476"><time>2021-04-17T07:28:38.820</time></trkpt><trkpt lat="55.8367240" lon="48.9694698"><time>2021-04-17T07:28:41.823</time></trkpt><trkpt lat="55.8367082" lon="48.9695624"><time>2021-04-17T07:28:43.823</time></trkpt><trkpt lat="55.8366797" lon="48.9696501"><time>2021-04-17T07:28:46.807</time></trkpt><trkpt lat="55.8366545" lon="48.9697397"><time>2021-04-17T07:28:49.803</time></trkpt><trkpt lat="55.8366386" lon="48.9698257"><time>2021-04-17T07:28:52.817</time></trkpt><trkpt lat="55.8366297" lon="48.9699216"><time>2021-04-17T07:28:55.820</time></trkpt><trkpt lat="55.8359513" lon="48.9716660"><time>2021-04-17T07:30:10.953</time></trkpt><trkpt lat="55.8359998" lon="48.9717307"><time>2021-04-17T07:30:11.957</time></trkpt><trkpt lat="55.8359998" lon="48.9717307"><time>2021-04-17T07:30:12.337</time></trkpt><trkpt lat="55.8360015" lon="48.9718115"><time>2021-04-17T07:30:22.977</time></trkpt><trkpt lat="55.8359507" lon="48.9718277"><time>2021-04-17T07:30:28.970</time></trkpt><trkpt lat="55.8359007" lon="48.9718341"><time>2021-04-17T07:30:31.967</time></trkpt><trkpt lat="55.8358563" lon="48.9718128"><time>2021-04-17T07:30:34.980</time></trkpt><trkpt lat="55.8358021" lon="48.9717942"><time>2021-04-17T07:30:38.010</time></trkpt><trkpt lat="55.8357539" lon="48.9718238"><time>2021-04-17T07:30:40.953</time></trkpt><trkpt lat="55.8357105" lon="48.9718568"><time>2021-04-17T07:30:43.940</time></trkpt><trkpt lat="55.8356689" lon="48.9719007"><time>2021-04-17T07:30:46.963</time></trkpt><trkpt lat="55.8356117" lon="48.9718780"><time>2021-04-17T07:30:49.983</time></trkpt><trkpt lat="55.8355508" lon="48.9719208"><time>2021-04-17T07:30:53</time></trkpt><trkpt lat="55.8355107" lon="48.9719834"><time>2021-04-17T07:30:55.960</time></trkpt><trkpt lat="55.8354718" lon="48.9720392"><time>2021-04-17T07:30:57.960</time></trkpt><trkpt lat="55.8354138" lon="48.9720103"><time>2021-04-17T07:31:00.997</time></trkpt><trkpt lat="55.8353638" lon="48.9720117"><time>2021-04-17T07:31:02.987</time></trkpt><trkpt lat="55.8353124" lon="48.9720178"><time>2021-04-17T07:31:04.987</time></trkpt><trkpt lat="55.8352589" lon="48.9720330"><time>2021-04-17T07:31:09.023</time></trkpt><trkpt lat="55.8351951" lon="48.9720247"><time>2021-04-17T07:31:12.017</time></trkpt><trkpt lat="55.8351458" lon="48.9720059"><time>2021-04-17T07:31:15.013</time></trkpt><trkpt lat="55.8351004" lon="48.9720234"><time>2021-04-17T07:31:18.990</time></trkpt><trkpt lat="55.8350378" lon="48.9720256"><time>2021-04-17T07:31:23.017</time></trkpt><trkpt lat="55.8349907" lon="48.9720150"><time>2021-04-17T07:31:25.007</time></trkpt><trkpt lat="55.8349415" lon="48.9720255"><time>2021-04-17T07:31:27.010</time></trkpt><trkpt lat="55.8348890" lon="48.9719853"><time>2021-04-17T07:31:29.983</time></trkpt><trkpt lat="55.8348261" lon="48.9719676"><time>2021-04-17T07:31:33.010</time></trkpt><trkpt lat="55.8347935" lon="48.9719094"><time>2021-04-17T07:31:35.983</time></trkpt><trkpt lat="55.8347400" lon="48.9718785"><time>2021-04-17T07:31:39.993</time></trkpt><trkpt lat="55.8346850" lon="48.9719042"><time>2021-04-17T07:31:42.977</time></trkpt><trkpt lat="55.8346322" lon="48.9718961"><time>2021-04-17T07:31:47.957</time></trkpt><trkpt lat="55.8345792" lon="48.9719195"><time>2021-04-17T07:31:53.960</time></trkpt><trkpt lat="55.8345344" lon="48.9718995"><time>2021-04-17T07:31:55.960</time></trkpt><trkpt lat="55.8344978" lon="48.9718489"><time>2021-04-17T07:31:57.967</time></trkpt><trkpt lat="55.8344553" lon="48.9717999"><time>2021-04-17T07:32:00.983</time></trkpt><trkpt lat="55.8344053" lon="48.9718011"><time>2021-04-17T07:32:07.950</time></trkpt><trkpt lat="55.8343608" lon="48.9717679"><time>2021-04-17T07:32:18.970</time></trkpt><trkpt lat="55.8343209" lon="48.9718174"><time>2021-04-17T07:32:26.977</time></trkpt><trkpt lat="55.8343098" lon="48.9719029"><time>2021-04-17T07:32:29.967</time></trkpt><trkpt lat="55.8342468" lon="48.9719160"><time>2021-04-17T07:32:32.980</time></trkpt><trkpt lat="55.8342078" lon="48.9718609"><time>2021-04-17T07:32:34.973</time></trkpt><trkpt lat="55.8341628" lon="48.9717975"><time>2021-04-17T07:32:36.970</time></trkpt><trkpt lat="55.8341243" lon="48.9717327"><time>2021-04-17T07:32:42.047</time></trkpt><trkpt lat="55.8340766" lon="48.9717482"><time>2021-04-17T07:32:43.990</time></trkpt><trkpt lat="55.8340370" lon="48.9718076"><time>2021-04-17T07:32:45.967</time></trkpt><trkpt lat="55.8340074" lon="48.9718927"><time>2021-04-17T07:32:47.980</time></trkpt><trkpt lat="55.8339703" lon="48.9719742"><time>2021-04-17T07:32:49.993</time></trkpt><trkpt lat="55.8339550" lon="48.9720610"><time>2021-04-17T07:32:51.970</time></trkpt><trkpt lat="55.8339583" lon="48.9721852"><time>2021-04-17T07:32:53.967</time></trkpt><trkpt lat="55.8339170" lon="48.9722816"><time>2021-04-17T07:32:55.963</time></trkpt><trkpt lat="55.8338743" lon="48.9723809"><time>2021-04-17T07:32:57.977</time></trkpt><trkpt lat="55.8338450" lon="48.9724623"><time>2021-04-17T07:32:59.970</time></trkpt><trkpt lat="55.8338135" lon="48.9725248"><time>2021-04-17T07:33:01.993</time></trkpt><trkpt lat="55.8337782" lon="48.9726088"><time>2021-04-17T07:33:04.987</time></trkpt><trkpt lat="55.8337708" lon="48.9727142"><time>2021-04-17T07:33:06.970</time></trkpt><trkpt lat="55.8337500" lon="48.9727887"><time>2021-04-17T07:33:08.987</time></trkpt><trkpt lat="55.8337131" lon="48.9728586"><time>2021-04-17T07:33:12.017</time></trkpt><trkpt lat="55.8336944" lon="48.9729490"><time>2021-04-17T07:33:16.953</time></trkpt><trkpt lat="55.8336713" lon="48.9730194"><time>2021-04-17T07:33:19.953</time></trkpt><trkpt lat="55.8336685" lon="48.9730239"><time>2021-04-17T07:33:21.483</time></trkpt><trkpt lat="55.8336250" lon="48.9730186"><time>2021-04-17T07:33:33.957</time></trkpt><trkpt lat="55.8335805" lon="48.9729665"><time>2021-04-17T07:33:47.970</time></trkpt><trkpt lat="55.8335619" lon="48.9728821"><time>2021-04-17T07:33:50.953</time></trkpt><trkpt lat="55.8335117" lon="48.9728091"><time>2021-04-17T07:33:54.947</time></trkpt><trkpt lat="55.8334613" lon="48.9727387"><time>2021-04-17T07:33:57.970</time></trkpt><trkpt lat="55.8334151" lon="48.9726860"><time>2021-04-17T07:34:00.980</time></trkpt><trkpt lat="55.8333684" lon="48.9726208"><time>2021-04-17T07:34:05.977</time></trkpt><trkpt lat="55.8333366" lon="48.9725593"><time>2021-04-17T07:34:08.947</time></trkpt><trkpt lat="55.8332972" lon="48.9725196"><time>2021-04-17T07:34:10.967</time></trkpt><trkpt lat="55.8332576" lon="48.9724497"><time>2021-04-17T07:34:12.957</time></trkpt><trkpt lat="55.8332177" lon="48.9723633"><time>2021-04-17T07:34:14.977</time></trkpt><trkpt lat="55.8331668" lon="48.9723020"><time>2021-04-17T07:34:17.973</time></trkpt><trkpt lat="55.8331201" lon="48.9722918"><time>2021-04-17T07:34:21.027</time></trkpt><trkpt lat="55.8330597" lon="48.9723128"><time>2021-04-17T07:34:24.003</time></trkpt><trkpt lat="55.8330104" lon="48.9722579"><time>2021-04-17T07:34:26.983</time></trkpt><trkpt lat="55.8329741" lon="48.9721993"><time>2021-04-17T07:34:29.003</time></trkpt><trkpt lat="55.8329398" lon="48.9721002"><time>2021-04-17T07:34:31.963</time></trkpt><trkpt lat="55.8328837" lon="48.9720394"><time>2021-04-17T07:34:34.967</time></trkpt><trkpt lat="55.8328796" lon="48.9719451"><time>2021-04-17T07:34:38.953</time></trkpt><trkpt lat="55.8328882" lon="48.9718581"><time>2021-04-17T07:34:41.957</time></trkpt><trkpt lat="55.8329084" lon="48.9717807"><time>2021-04-17T07:34:44.973</time></trkpt><trkpt lat="55.8329307" lon="48.9716862"><time>2021-04-17T07:34:48.963</time></trkpt><trkpt lat="55.8329258" lon="48.9715977"><time>2021-04-17T07:34:51.960</time></trkpt><trkpt lat="55.8329261" lon="48.9714941"><time>2021-04-17T07:34:55.970</time></trkpt><trkpt lat="55.8329261" lon="48.9714069"><time>2021-04-17T07:34:59.993</time></trkpt><trkpt lat="55.8329288" lon="48.9713069"><time>2021-04-17T07:35:04.980</time></trkpt><trkpt lat="55.8329247" lon="48.9711896"><time>2021-04-17T07:35:07.967</time></trkpt><trkpt lat="55.8329210" lon="48.9711092"><time>2021-04-17T07:35:10.010</time></trkpt><trkpt lat="55.8329280" lon="48.9710215"><time>2021-04-17T07:35:12.023</time></trkpt><trkpt lat="55.8329394" lon="48.9709421"><time>2021-04-17T07:35:14.010</time></trkpt><trkpt lat="55.8329244" lon="48.9708576"><time>2021-04-17T07:35:15.997</time></trkpt><trkpt lat="55.8329179" lon="48.9707741"><time>2021-04-17T07:35:18.007</time></trkpt><trkpt lat="55.8329275" lon="48.9706957"><time>2021-04-17T07:35:20.020</time></trkpt><trkpt lat="55.8329574" lon="48.9706314"><time>2021-04-17T07:35:22.993</time></trkpt><trkpt lat="55.8329352" lon="48.9705437"><time>2021-04-17T07:35:27.007</time></trkpt><trkpt lat="55.8328953" lon="48.9704502"><time>2021-04-17T07:35:30.010</time></trkpt><trkpt lat="55.8328731" lon="48.9703631"><time>2021-04-17T07:35:32.010</time></trkpt><trkpt lat="55.8328624" lon="48.9702606"><time>2021-04-17T07:35:34.073</time></trkpt><trkpt lat="55.8328657" lon="48.9701164"><time>2021-04-17T07:35:36.040</time></trkpt><trkpt lat="55.8328617" lon="48.9700047"><time>2021-04-17T07:35:38.007</time></trkpt><trkpt lat="55.8328548" lon="48.9698991"><time>2021-04-17T07:35:40.007</time></trkpt><trkpt lat="55.8328420" lon="48.9697942"><time>2021-04-17T07:35:42.007</time></trkpt><trkpt lat="55.8328171" lon="48.9697082"><time>2021-04-17T07:35:45.003</time></trkpt><trkpt lat="55.8328217" lon="48.9696123"><time>2021-04-17T07:35:49.023</time></trkpt><trkpt lat="55.8327880" lon="48.9695188"><time>2021-04-17T07:35:52.013</time></trkpt><trkpt lat="55.8327199" lon="48.9695137"><time>2021-04-17T07:35:55.007</time></trkpt><trkpt lat="55.8326791" lon="48.9695597"><time>2021-04-17T07:35:57</time></trkpt><trkpt lat="55.8326253" lon="48.9695931"><time>2021-04-17T07:35:58.983</time></trkpt><trkpt lat="55.8326209" lon="48.9695463"><time>2021-04-17T07:36:16.817</time></trkpt><trkpt lat="55.8326605" lon="48.9695429"><time>2021-04-17T07:36:27.990</time></trkpt><trkpt lat="55.8326193" lon="48.9695985"><time>2021-04-17T07:36:32.950</time></trkpt><trkpt lat="55.8325747" lon="48.9696341"><time>2021-04-17T07:36:37.957</time></trkpt><trkpt lat="55.8326101" lon="48.9695810"><time>2021-04-17T07:36:44.983</time></trkpt><trkpt lat="55.8326620" lon="48.9695568"><time>2021-04-17T07:37:00.987</time></trkpt><trkpt lat="55.8327266" lon="48.9694929"><time>2021-04-17T07:37:04</time></trkpt><trkpt lat="55.8327790" lon="48.9694613"><time>2021-04-17T07:37:07.007</time></trkpt><trkpt lat="55.8328242" lon="48.9693984"><time>2021-04-17T07:37:10.950</time></trkpt><trkpt lat="55.8328474" lon="48.9693300"><time>2021-04-17T07:37:13.960</time></trkpt><trkpt lat="55.8328515" lon="48.9692464"><time>2021-04-17T07:37:16.987</time></trkpt><trkpt lat="55.8328766" lon="48.9691794"><time>2021-04-17T07:37:33.010</time></trkpt><trkpt lat="55.8328762" lon="48.9690952"><time>2021-04-17T07:37:36.943</time></trkpt><trkpt lat="55.8328784" lon="48.9690120"><time>2021-04-17T07:37:42.987</time></trkpt><trkpt lat="55.8328586" lon="48.9689381"><time>2021-04-17T07:37:55.013</time></trkpt><trkpt lat="55.8328880" lon="48.9688677"><time>2021-04-17T07:38:00</time></trkpt><trkpt lat="55.8328902" lon="48.9687777"><time>2021-04-17T07:38:05.007</time></trkpt><trkpt lat="55.8328763" lon="48.9686982"><time>2021-04-17T07:38:10.977</time></trkpt><trkpt lat="55.8328802" lon="48.9686109"><time>2021-04-17T07:38:15.987</time></trkpt><trkpt lat="55.8328897" lon="48.9685204"><time>2021-04-17T07:38:22.010</time></trkpt><trkpt lat="55.8329029" lon="48.9684366"><time>2021-04-17T07:38:28.057</time></trkpt><trkpt lat="55.8329229" lon="48.9683318"><time>2021-04-17T07:38:33.973</time></trkpt><trkpt lat="55.8329438" lon="48.9682399"><time>2021-04-17T07:38:36.997</time></trkpt><trkpt lat="55.8329622" lon="48.9681599"><time>2021-04-17T07:38:39.980</time></trkpt><trkpt lat="55.8329740" lon="48.9680659"><time>2021-04-17T07:38:42.997</time></trkpt><trkpt lat="55.8329850" lon="48.9679549"><time>2021-04-17T07:38:48.017</time></trkpt><trkpt lat="55.8329974" lon="48.9678558"><time>2021-04-17T07:38:52.007</time></trkpt><trkpt lat="55.8330000" lon="48.9677665"><time>2021-04-17T07:38:55.010</time></trkpt><trkpt lat="55.8330029" lon="48.9676810"><time>2021-04-17T07:38:58.010</time></trkpt><trkpt lat="55.8330133" lon="48.9675844"><time>2021-04-17T07:39:02.013</time></trkpt><trkpt lat="55.8330229" lon="48.9674813"><time>2021-04-17T07:39:05.973</time></trkpt><trkpt lat="55.8330197" lon="48.9673825"><time>2021-04-17T07:39:09.003</time></trkpt><trkpt lat="55.8330300" lon="48.9672976"><time>2021-04-17T07:39:12.010</time></trkpt><trkpt lat="55.8330429" lon="48.9671976"><time>2021-04-17T07:39:15.010</time></trkpt><trkpt lat="55.8330408" lon="48.9671164"><time>2021-04-17T07:39:18.007</time></trkpt><trkpt lat="55.8330397" lon="48.9670317"><time>2021-04-17T07:39:21.007</time></trkpt><trkpt lat="55.8330404" lon="48.9669508"><time>2021-04-17T07:39:23.977</time></trkpt><trkpt lat="55.8330383" lon="48.9668439"><time>2021-04-17T07:39:27.013</time></trkpt><trkpt lat="55.8330368" lon="48.9667609"><time>2021-04-17T07:39:28.960</time></trkpt><trkpt lat="55.8330391" lon="48.9666385"><time>2021-04-17T07:39:32.067</time></trkpt><trkpt lat="55.8330438" lon="48.9665247"><time>2021-04-17T07:39:34.987</time></trkpt><trkpt lat="55.8330437" lon="48.9664219"><time>2021-04-17T07:39:38.007</time></trkpt><trkpt lat="55.8330430" lon="48.9663421"><time>2021-04-17T07:39:41.013</time></trkpt><trkpt lat="55.8330466" lon="48.9662609"><time>2021-04-17T07:39:43.987</time></trkpt><trkpt lat="55.8331181" lon="48.9662037"><time>2021-04-17T07:39:45.203</time></trkpt><trkpt lat="55.8331434" lon="48.9661309"><time>2021-04-17T07:39:50.973</time></trkpt><trkpt lat="55.8331530" lon="48.9660373"><time>2021-04-17T07:39:58.010</time></trkpt><trkpt lat="55.8331627" lon="48.9659386"><time>2021-04-17T07:39:59.987</time></trkpt><trkpt lat="55.8331777" lon="48.9658470"><time>2021-04-17T07:40:03.010</time></trkpt><trkpt lat="55.8332188" lon="48.9657429"><time>2021-04-17T07:40:05.990</time></trkpt><trkpt lat="55.8332551" lon="48.9656485"><time>2021-04-17T07:40:08.980</time></trkpt><trkpt lat="55.8332757" lon="48.9655574"><time>2021-04-17T07:40:10.977</time></trkpt><trkpt lat="55.8332941" lon="48.9654579"><time>2021-04-17T07:40:13.070</time></trkpt><trkpt lat="55.8333186" lon="48.9653640"><time>2021-04-17T07:40:15.010</time></trkpt><trkpt lat="55.8333336" lon="48.9652503"><time>2021-04-17T07:40:19.017</time></trkpt><trkpt lat="55.8333518" lon="48.9651394"><time>2021-04-17T07:40:21.960</time></trkpt><trkpt lat="55.8333985" lon="48.9650423"><time>2021-04-17T07:40:25.013</time></trkpt><trkpt lat="55.8334047" lon="48.9649619"><time>2021-04-17T07:40:27.983</time></trkpt><trkpt lat="55.8334221" lon="48.9648833"><time>2021-04-17T07:40:32</time></trkpt><trkpt lat="55.8333787" lon="48.9649102"><time>2021-04-17T07:40:36.983</time></trkpt><trkpt lat="55.8333380" lon="48.9649473"><time>2021-04-17T07:40:39.973</time></trkpt><trkpt lat="55.8333145" lon="48.9650164"><time>2021-04-17T07:40:43.057</time></trkpt><trkpt lat="55.8332839" lon="48.9650795"><time>2021-04-17T07:40:44.967</time></trkpt><trkpt lat="55.8332164" lon="48.9650855"><time>2021-04-17T07:40:46.990</time></trkpt><trkpt lat="55.8331638" lon="48.9650889"><time>2021-04-17T07:40:48.987</time></trkpt><trkpt lat="55.8331389" lon="48.9650091"><time>2021-04-17T07:40:50.983</time></trkpt><trkpt lat="55.8331190" lon="48.9649138"><time>2021-04-17T07:40:53.957</time></trkpt><trkpt lat="55.8331477" lon="48.9649062"><time>2021-04-17T07:40:59.500</time></trkpt><trkpt lat="55.8330924" lon="48.9647640"><time>2021-04-17T07:41:31.943</time></trkpt><trkpt lat="55.8330618" lon="48.9646690"><time>2021-04-17T07:41:33.957</time></trkpt><trkpt lat="55.8330258" lon="48.9646208"><time>2021-04-17T07:41:35.980</time></trkpt><trkpt lat="55.8330129" lon="48.9645364"><time>2021-04-17T07:41:38.977</time></trkpt><trkpt lat="55.8329867" lon="48.9644634"><time>2021-04-17T07:41:40.977</time></trkpt><trkpt lat="55.8329845" lon="48.9643680"><time>2021-04-17T07:41:42.993</time></trkpt><trkpt lat="55.8329856" lon="48.9642720"><time>2021-04-17T07:41:45.007</time></trkpt><trkpt lat="55.8329991" lon="48.9641919"><time>2021-04-17T07:41:47.017</time></trkpt><trkpt lat="55.8330049" lon="48.9641100"><time>2021-04-17T07:41:48.970</time></trkpt><trkpt lat="55.8330503" lon="48.9640356"><time>2021-04-17T07:41:53.977</time></trkpt><trkpt lat="55.8330431" lon="48.9639441"><time>2021-04-17T07:41:57.983</time></trkpt><trkpt lat="55.8329882" lon="48.9638987"><time>2021-04-17T07:42:00.957</time></trkpt><trkpt lat="55.8329515" lon="48.9638491"><time>2021-04-17T07:42:03.963</time></trkpt><trkpt lat="55.8329014" lon="48.9638405"><time>2021-04-17T07:42:07.967</time></trkpt><trkpt lat="55.8328464" lon="48.9638345"><time>2021-04-17T07:42:10.993</time></trkpt><trkpt lat="55.8328030" lon="48.9637934"><time>2021-04-17T07:42:13.997</time></trkpt><trkpt lat="55.8327556" lon="48.9637347"><time>2021-04-17T07:42:17</time></trkpt><trkpt lat="55.8327122" lon="48.9636706"><time>2021-04-17T07:42:20.007</time></trkpt><trkpt lat="55.8326668" lon="48.9636339"><time>2021-04-17T07:42:22.010</time></trkpt><trkpt lat="55.8326117" lon="48.9636188"><time>2021-04-17T07:42:24.033</time></trkpt><trkpt lat="55.8325520" lon="48.9635956"><time>2021-04-17T07:42:25.993</time></trkpt><trkpt lat="55.8324950" lon="48.9635779"><time>2021-04-17T07:42:28.017</time></trkpt><trkpt lat="55.8324373" lon="48.9635623"><time>2021-04-17T07:42:30.003</time></trkpt><trkpt lat="55.8323867" lon="48.9635433"><time>2021-04-17T07:42:32.010</time></trkpt><trkpt lat="55.8323408" lon="48.9635107"><time>2021-04-17T07:42:34.013</time></trkpt><trkpt lat="55.8322864" lon="48.9634814"><time>2021-04-17T07:42:37.017</time></trkpt><trkpt lat="55.8322307" lon="48.9634487"><time>2021-04-17T07:42:40.033</time></trkpt><trkpt lat="55.8321818" lon="48.9633897"><time>2021-04-17T07:42:43.987</time></trkpt><trkpt lat="55.8321401" lon="48.9633487"><time>2021-04-17T07:42:54.957</time></trkpt><trkpt lat="55.8321079" lon="48.9632834"><time>2021-04-17T07:43:18.953</time></trkpt><trkpt lat="55.8320588" lon="48.9632195"><time>2021-04-17T07:43:22.970</time></trkpt><trkpt lat="55.8320269" lon="48.9631600"><time>2021-04-17T07:43:24.977</time></trkpt><trkpt lat="55.8319915" lon="48.9630803"><time>2021-04-17T07:43:26.993</time></trkpt><trkpt lat="55.8319527" lon="48.9629784"><time>2021-04-17T07:43:28.973</time></trkpt><trkpt lat="55.8319357" lon="48.9628658"><time>2021-04-17T07:43:31.003</time></trkpt><trkpt lat="55.8319146" lon="48.9627731"><time>2021-04-17T07:43:32.990</time></trkpt><trkpt lat="55.8318959" lon="48.9626728"><time>2021-04-17T07:43:35.017</time></trkpt><trkpt lat="55.8318736" lon="48.9625860"><time>2021-04-17T07:43:37.013</time></trkpt><trkpt lat="55.8318520" lon="48.9625013"><time>2021-04-17T07:43:38.973</time></trkpt><trkpt lat="55.8318245" lon="48.9624006"><time>2021-04-17T07:43:41.010</time></trkpt><trkpt lat="55.8318088" lon="48.9623133"><time>2021-04-17T07:43:42.997</time></trkpt><trkpt lat="55.8317881" lon="48.9622358"><time>2021-04-17T07:43:45.027</time></trkpt><trkpt lat="55.8317706" lon="48.9621267"><time>2021-04-17T07:43:48.007</time></trkpt><trkpt lat="55.8317471" lon="48.9620305"><time>2021-04-17T07:43:49.997</time></trkpt><trkpt lat="55.8317284" lon="48.9619454"><time>2021-04-17T07:43:52.067</time></trkpt><trkpt lat="55.8317170" lon="48.9618541"><time>2021-04-17T07:43:53.967</time></trkpt><trkpt lat="55.8317022" lon="48.9617750"><time>2021-04-17T07:43:56.007</time></trkpt><trkpt lat="55.8316820" lon="48.9617013"><time>2021-04-17T07:43:59.147</time></trkpt><trkpt lat="55.8322427" lon="48.9567054"><time>2021-04-17T07:48:01.807</time></trkpt><trkpt lat="55.8320918" lon="48.9566113"><time>2021-04-17T07:48:02.827</time></trkpt><trkpt lat="55.8320172" lon="48.9565531"><time>2021-04-17T07:48:04.830</time></trkpt><trkpt lat="55.8320547" lon="48.9566089"><time>2021-04-17T07:48:07.803</time></trkpt><trkpt lat="55.8320727" lon="48.9566600"><time>2021-04-17T07:48:12.473</time></trkpt><trkpt lat="55.8320184" lon="48.9565420"><time>2021-04-17T07:48:43.800</time></trkpt><trkpt lat="55.8319818" lon="48.9564277"><time>2021-04-17T07:48:46.803</time></trkpt><trkpt lat="55.8319477" lon="48.9563682"><time>2021-04-17T07:48:48.837</time></trkpt><trkpt lat="55.8319184" lon="48.9562999"><time>2021-04-17T07:48:52.867</time></trkpt><trkpt lat="55.8319353" lon="48.9563947"><time>2021-04-17T07:48:59.807</time></trkpt><trkpt lat="55.8319508" lon="48.9562862"><time>2021-04-17T07:49:01.813</time></trkpt><trkpt lat="55.8319652" lon="48.9562002"><time>2021-04-17T07:49:07.847</time></trkpt><trkpt lat="55.8318997" lon="48.9561852"><time>2021-04-17T07:49:14.867</time></trkpt><trkpt lat="55.8318577" lon="48.9562282"><time>2021-04-17T07:49:19.860</time></trkpt><trkpt lat="55.8318075" lon="48.9562799"><time>2021-04-17T07:49:23.840</time></trkpt><trkpt lat="55.8317598" lon="48.9562877"><time>2021-04-17T07:49:30.873</time></trkpt><trkpt lat="55.8317136" lon="48.9562568"><time>2021-04-17T07:49:33.863</time></trkpt><trkpt lat="55.8316749" lon="48.9562086"><time>2021-04-17T07:49:36.837</time></trkpt><trkpt lat="55.8316219" lon="48.9561605"><time>2021-04-17T07:49:41.830</time></trkpt><trkpt lat="55.8315826" lon="48.9561090"><time>2021-04-17T07:49:44.830</time></trkpt><trkpt lat="55.8315319" lon="48.9560733"><time>2021-04-17T07:49:49.840</time></trkpt><trkpt lat="55.8315042" lon="48.9559791"><time>2021-04-17T07:50:07.833</time></trkpt><trkpt lat="55.8314539" lon="48.9559052"><time>2021-04-17T07:50:10.863</time></trkpt><trkpt lat="55.8314447" lon="48.9558173"><time>2021-04-17T07:50:14.857</time></trkpt><trkpt lat="55.8314227" lon="48.9556673"><time>2021-04-17T07:50:16.850</time></trkpt><trkpt lat="55.8314243" lon="48.9555778"><time>2021-04-17T07:50:21.860</time></trkpt><trkpt lat="55.8314324" lon="48.9554954"><time>2021-04-17T07:50:28.823</time></trkpt><trkpt lat="55.8313865" lon="48.9554030"><time>2021-04-17T07:50:32.857</time></trkpt><trkpt lat="55.8314338" lon="48.9551728"><time>2021-04-17T07:50:34.847</time></trkpt><trkpt lat="55.8314441" lon="48.9550724"><time>2021-04-17T07:50:36.837</time></trkpt><trkpt lat="55.8314473" lon="48.9549785"><time>2021-04-17T07:50:39.840</time></trkpt><trkpt lat="55.8314444" lon="48.9548810"><time>2021-04-17T07:50:41.837</time></trkpt><trkpt lat="55.8314310" lon="48.9547663"><time>2021-04-17T07:50:44.843</time></trkpt><trkpt lat="55.8314168" lon="48.9546747"><time>2021-04-17T07:50:46.840</time></trkpt><trkpt lat="55.8314156" lon="48.9545870"><time>2021-04-17T07:50:48.847</time></trkpt><trkpt lat="55.8314111" lon="48.9545015"><time>2021-04-17T07:50:50.867</time></trkpt><trkpt lat="55.8313859" lon="48.9544304"><time>2021-04-17T07:50:52.857</time></trkpt><trkpt lat="55.8313886" lon="48.9543272"><time>2021-04-17T07:50:56.870</time></trkpt><trkpt lat="55.8313815" lon="48.9542170"><time>2021-04-17T07:50:59.813</time></trkpt><trkpt lat="55.8313700" lon="48.9541289"><time>2021-04-17T07:51:02.807</time></trkpt><trkpt lat="55.8313609" lon="48.9540474"><time>2021-04-17T07:51:05.827</time></trkpt><trkpt lat="55.8313499" lon="48.9539566"><time>2021-04-17T07:51:08.833</time></trkpt><trkpt lat="55.8313409" lon="48.9538334"><time>2021-04-17T07:51:11.837</time></trkpt><trkpt lat="55.8313289" lon="48.9537460"><time>2021-04-17T07:51:14.863</time></trkpt><trkpt lat="55.8313262" lon="48.9536645"><time>2021-04-17T07:51:17.810</time></trkpt><trkpt lat="55.8312996" lon="48.9535787"><time>2021-04-17T07:51:20.807</time></trkpt><trkpt lat="55.8312518" lon="48.9535083"><time>2021-04-17T07:51:23.807</time></trkpt><trkpt lat="55.8312225" lon="48.9534260"><time>2021-04-17T07:51:26.833</time></trkpt><trkpt lat="55.8311838" lon="48.9533641"><time>2021-04-17T07:51:29.843</time></trkpt><trkpt lat="55.8283094" lon="48.9494425"><time>2021-04-17T07:56:37.990</time></trkpt><trkpt lat="55.8283372" lon="48.9495170"><time>2021-04-17T07:56:39.983</time></trkpt><trkpt lat="55.8283673" lon="48.9495559"><time>2021-04-17T07:56:41.023</time></trkpt><trkpt lat="55.8283903" lon="48.9495538"><time>2021-04-17T07:56:41.960</time></trkpt><trkpt lat="55.8283427" lon="48.9495804"><time>2021-04-17T07:56:42.997</time></trkpt><trkpt lat="55.8282956" lon="48.9496008"><time>2021-04-17T07:56:45.997</time></trkpt><trkpt lat="55.8282500" lon="48.9496133"><time>2021-04-17T07:56:57</time></trkpt><trkpt lat="55.8282240" lon="48.9495436"><time>2021-04-17T07:57:08.997</time></trkpt><trkpt lat="55.8281877" lon="48.9494597"><time>2021-04-17T07:57:12.003</time></trkpt><trkpt lat="55.8281495" lon="48.9493734"><time>2021-04-17T07:57:15.020</time></trkpt><trkpt lat="55.8280960" lon="48.9493947"><time>2021-04-17T07:57:37.043</time></trkpt><trkpt lat="55.8280595" lon="48.9493327"><time>2021-04-17T07:57:41.010</time></trkpt><trkpt lat="55.8280135" lon="48.9493144"><time>2021-04-17T07:57:42.960</time></trkpt><trkpt lat="55.8279685" lon="48.9492762"><time>2021-04-17T07:57:44.977</time></trkpt><trkpt lat="55.8279214" lon="48.9492290"><time>2021-04-17T07:57:46.977</time></trkpt><trkpt lat="55.8278668" lon="48.9491880"><time>2021-04-17T07:57:48.987</time></trkpt><trkpt lat="55.8278194" lon="48.9491304"><time>2021-04-17T07:57:50.980</time></trkpt><trkpt lat="55.8277601" lon="48.9490837"><time>2021-04-17T07:57:52.990</time></trkpt><trkpt lat="55.8276921" lon="48.9490256"><time>2021-04-17T07:57:55</time></trkpt><trkpt lat="55.8276364" lon="48.9489242"><time>2021-04-17T07:57:56.977</time></trkpt><trkpt lat="55.8275740" lon="48.9488391"><time>2021-04-17T07:57:58.973</time></trkpt><trkpt lat="55.8275183" lon="48.9487647"><time>2021-04-17T07:58:01</time></trkpt><trkpt lat="55.8274647" lon="48.9486861"><time>2021-04-17T07:58:02.977</time></trkpt><trkpt lat="55.8274027" lon="48.9486371"><time>2021-04-17T07:58:04.980</time></trkpt><trkpt lat="55.8273356" lon="48.9485640"><time>2021-04-17T07:58:06.973</time></trkpt><trkpt lat="55.8272958" lon="48.9485267"><time>2021-04-17T07:58:07.967</time></trkpt><trkpt lat="55.8272107" lon="48.9484748"><time>2021-04-17T07:58:09.973</time></trkpt><trkpt lat="55.8271336" lon="48.9484194"><time>2021-04-17T07:58:11.973</time></trkpt><trkpt lat="55.8270668" lon="48.9483787"><time>2021-04-17T07:58:13.980</time></trkpt><trkpt lat="55.8270093" lon="48.9483158"><time>2021-04-17T07:58:15.977</time></trkpt><trkpt lat="55.8269546" lon="48.9482524"><time>2021-04-17T07:58:17.977</time></trkpt><trkpt lat="55.8268902" lon="48.9482042"><time>2021-04-17T07:58:19.977</time></trkpt><trkpt lat="55.8268318" lon="48.9481780"><time>2021-04-17T07:58:22.007</time></trkpt><trkpt lat="55.8267852" lon="48.9481540"><time>2021-04-17T07:58:23.977</time></trkpt><trkpt lat="55.8267512" lon="48.9480719"><time>2021-04-17T07:58:38.987</time></trkpt><trkpt lat="55.8266916" lon="48.9480237"><time>2021-04-17T07:58:40.977</time></trkpt><trkpt lat="55.8266323" lon="48.9479750"><time>2021-04-17T07:58:42.977</time></trkpt><trkpt lat="55.8265928" lon="48.9479325"><time>2021-04-17T07:58:44.977</time></trkpt><trkpt lat="55.8265572" lon="48.9478482"><time>2021-04-17T07:58:46.973</time></trkpt><trkpt lat="55.8265138" lon="48.9477756"><time>2021-04-17T07:58:48.980</time></trkpt><trkpt lat="55.8265074" lon="48.9476564"><time>2021-04-17T07:58:52.983</time></trkpt><trkpt lat="55.8264685" lon="48.9476035"><time>2021-04-17T07:58:53.997</time></trkpt><trkpt lat="55.8264303" lon="48.9475122"><time>2021-04-17T07:58:55.977</time></trkpt><trkpt lat="55.8263925" lon="48.9474101"><time>2021-04-17T07:58:57.977</time></trkpt><trkpt lat="55.8263541" lon="48.9473054"><time>2021-04-17T07:58:59.970</time></trkpt><trkpt lat="55.8263207" lon="48.9472142"><time>2021-04-17T07:59:01.993</time></trkpt><trkpt lat="55.8262912" lon="48.9471036"><time>2021-04-17T07:59:03.963</time></trkpt><trkpt lat="55.8262836" lon="48.9469872"><time>2021-04-17T07:59:05.967</time></trkpt><trkpt lat="55.8262651" lon="48.9468717"><time>2021-04-17T07:59:08</time></trkpt><trkpt lat="55.8262589" lon="48.9467365"><time>2021-04-17T07:59:09.997</time></trkpt><trkpt lat="55.8262628" lon="48.9466115"><time>2021-04-17T07:59:11.963</time></trkpt><trkpt lat="55.8262687" lon="48.9465060"><time>2021-04-17T07:59:14.983</time></trkpt><trkpt lat="55.8262863" lon="48.9464086"><time>2021-04-17T07:59:16.977</time></trkpt><trkpt lat="55.8263320" lon="48.9463573"><time>2021-04-17T07:59:18.987</time></trkpt><trkpt lat="55.8263719" lon="48.9463007"><time>2021-04-17T07:59:21.013</time></trkpt><trkpt lat="55.8263570" lon="48.9462133"><time>2021-04-17T07:59:36.987</time></trkpt><trkpt lat="55.8263848" lon="48.9461285"><time>2021-04-17T07:59:39.993</time></trkpt><trkpt lat="55.8263946" lon="48.9460121"><time>2021-04-17T07:59:42.003</time></trkpt><trkpt lat="55.8264130" lon="48.9458996"><time>2021-04-17T07:59:43.993</time></trkpt><trkpt lat="55.8264394" lon="48.9457715"><time>2021-04-17T07:59:45.990</time></trkpt><trkpt lat="55.8264656" lon="48.9456386"><time>2021-04-17T07:59:48.007</time></trkpt><trkpt lat="55.8264870" lon="48.9455494"><time>2021-04-17T07:59:50.007</time></trkpt><trkpt lat="55.8264698" lon="48.9454584"><time>2021-04-17T07:59:54.997</time></trkpt><trkpt lat="55.8264806" lon="48.9453495"><time>2021-04-17T07:59:58.027</time></trkpt><trkpt lat="55.8264854" lon="48.9452583"><time>2021-04-17T08:00:00.023</time></trkpt><trkpt lat="55.8264957" lon="48.9451698"><time>2021-04-17T08:00:02.030</time></trkpt><trkpt lat="55.8265537" lon="48.9451211"><time>2021-04-17T08:00:08</time></trkpt><trkpt lat="55.8265437" lon="48.9452106"><time>2021-04-17T08:00:11.007</time></trkpt><trkpt lat="55.8264944" lon="48.9451925"><time>2021-04-17T08:00:22</time></trkpt><trkpt lat="55.8264347" lon="48.9450937"><time>2021-04-17T08:00:24.027</time></trkpt><trkpt lat="55.8263758" lon="48.9450300"><time>2021-04-17T08:00:25.987</time></trkpt><trkpt lat="55.8263119" lon="48.9449771"><time>2021-04-17T08:00:28.027</time></trkpt><trkpt lat="55.8262381" lon="48.9449378"><time>2021-04-17T08:00:30.023</time></trkpt><trkpt lat="55.8261959" lon="48.9448803"><time>2021-04-17T08:00:32.033</time></trkpt><trkpt lat="55.8261381" lon="48.9448300"><time>2021-04-17T08:00:34.003</time></trkpt><trkpt lat="55.8260689" lon="48.9447682"><time>2021-04-17T08:00:35.973</time></trkpt><trkpt lat="55.8259997" lon="48.9447234"><time>2021-04-17T08:00:37.997</time></trkpt><trkpt lat="55.8259519" lon="48.9447326"><time>2021-04-17T08:00:40</time></trkpt><trkpt lat="55.8258883" lon="48.9446971"><time>2021-04-17T08:00:43.093</time></trkpt><trkpt lat="55.8258388" lon="48.9446883"><time>2021-04-17T08:00:45.010</time></trkpt><trkpt lat="55.8257919" lon="48.9446927"><time>2021-04-17T08:00:47.023</time></trkpt><trkpt lat="55.8257297" lon="48.9447075"><time>2021-04-17T08:00:49.037</time></trkpt><trkpt lat="55.8256854" lon="48.9447389"><time>2021-04-17T08:00:51.027</time></trkpt><trkpt lat="55.8256411" lon="48.9447192"><time>2021-04-17T08:00:56.097</time></trkpt><trkpt lat="55.8256513" lon="48.9446412"><time>2021-04-17T08:01:02.027</time></trkpt><trkpt lat="55.8256490" lon="48.9445511"><time>2021-04-17T08:01:05.023</time></trkpt><trkpt lat="55.8256598" lon="48.9444572"><time>2021-04-17T08:01:15.020</time></trkpt><trkpt lat="55.8256545" lon="48.9443614"><time>2021-04-17T08:01:17.057</time></trkpt><trkpt lat="55.8256583" lon="48.9442635"><time>2021-04-17T08:01:23.010</time></trkpt><trkpt lat="55.8255840" lon="48.9442274"><time>2021-04-17T08:01:26.007</time></trkpt><trkpt lat="55.8255129" lon="48.9441913"><time>2021-04-17T08:01:27.987</time></trkpt><trkpt lat="55.8254527" lon="48.9441172"><time>2021-04-17T08:01:30.003</time></trkpt><trkpt lat="55.8254160" lon="48.9440553"><time>2021-04-17T08:01:31.983</time></trkpt><trkpt lat="55.8253585" lon="48.9439867"><time>2021-04-17T08:01:34.993</time></trkpt><trkpt lat="55.8253045" lon="48.9439325"><time>2021-04-17T08:01:37</time></trkpt><trkpt lat="55.8252431" lon="48.9438802"><time>2021-04-17T08:01:38.980</time></trkpt><trkpt lat="55.8251773" lon="48.9438313"><time>2021-04-17T08:01:41.020</time></trkpt><trkpt lat="55.8251258" lon="48.9437764"><time>2021-04-17T08:01:43.077</time></trkpt><trkpt lat="55.8250764" lon="48.9437004"><time>2021-04-17T08:01:45</time></trkpt><trkpt lat="55.8250178" lon="48.9436559"><time>2021-04-17T08:01:47.023</time></trkpt><trkpt lat="55.8249754" lon="48.9436051"><time>2021-04-17T08:01:49.027</time></trkpt><trkpt lat="55.8249331" lon="48.9435669"><time>2021-04-17T08:01:51.020</time></trkpt><trkpt lat="55.8248874" lon="48.9435474"><time>2021-04-17T08:01:53.027</time></trkpt><trkpt lat="55.8248421" lon="48.9435132"><time>2021-04-17T08:01:55.023</time></trkpt><trkpt lat="55.8247943" lon="48.9434694"><time>2021-04-17T08:01:56.993</time></trkpt><trkpt lat="55.8247548" lon="48.9434148"><time>2021-04-17T08:02:00.027</time></trkpt><trkpt lat="55.8247145" lon="48.9433713"><time>2021-04-17T08:02:02.030</time></trkpt><trkpt lat="55.8246700" lon="48.9433394"><time>2021-04-17T08:02:03.997</time></trkpt><trkpt lat="55.8246307" lon="48.9432913"><time>2021-04-17T08:02:06.020</time></trkpt><trkpt lat="55.8245717" lon="48.9432209"><time>2021-04-17T08:02:09.013</time></trkpt><trkpt lat="55.8245162" lon="48.9431845"><time>2021-04-17T08:02:11.990</time></trkpt><trkpt lat="55.8244653" lon="48.9431350"><time>2021-04-17T08:02:15.053</time></trkpt><trkpt lat="55.8245098" lon="48.9431766"><time>2021-04-17T08:02:24.027</time></trkpt><trkpt lat="55.8245608" lon="48.9432194"><time>2021-04-17T08:02:27.997</time></trkpt><trkpt lat="55.8246160" lon="48.9432341"><time>2021-04-17T08:02:32.020</time></trkpt><trkpt lat="55.8246633" lon="48.9432869"><time>2021-04-17T08:02:35.993</time></trkpt><trkpt lat="55.8246971" lon="48.9433575"><time>2021-04-17T08:02:38.990</time></trkpt><trkpt lat="55.8246449" lon="48.9433063"><time>2021-04-17T08:03:02</time></trkpt><trkpt lat="55.8245950" lon="48.9432607"><time>2021-04-17T08:03:04.040</time></trkpt><trkpt lat="55.8245533" lon="48.9432248"><time>2021-04-17T08:03:06.020</time></trkpt><trkpt lat="55.8244931" lon="48.9431817"><time>2021-04-17T08:03:09.003</time></trkpt><trkpt lat="55.8244433" lon="48.9431303"><time>2021-04-17T08:03:11.993</time></trkpt><trkpt lat="55.8243964" lon="48.9430599"><time>2021-04-17T08:03:14.020</time></trkpt><trkpt lat="55.8243347" lon="48.9429807"><time>2021-04-17T08:03:16.007</time></trkpt><trkpt lat="55.8242802" lon="48.9429163"><time>2021-04-17T08:03:18.003</time></trkpt><trkpt lat="55.8242246" lon="48.9428591"><time>2021-04-17T08:03:20.023</time></trkpt><trkpt lat="55.8241737" lon="48.9427964"><time>2021-04-17T08:03:22.027</time></trkpt><trkpt lat="55.8241299" lon="48.9427243"><time>2021-04-17T08:03:24.003</time></trkpt><trkpt lat="55.8240861" lon="48.9426693"><time>2021-04-17T08:03:25.990</time></trkpt><trkpt lat="55.8240417" lon="48.9426535"><time>2021-04-17T08:03:27.980</time></trkpt><trkpt lat="55.8240018" lon="48.9426053"><time>2021-04-17T08:03:29.997</time></trkpt><trkpt lat="55.8239397" lon="48.9425507"><time>2021-04-17T08:03:33.010</time></trkpt><trkpt lat="55.8238829" lon="48.9425010"><time>2021-04-17T08:03:34.987</time></trkpt><trkpt lat="55.8238257" lon="48.9424636"><time>2021-04-17T08:03:37</time></trkpt><trkpt lat="55.8237763" lon="48.9424650"><time>2021-04-17T08:03:38.983</time></trkpt><trkpt lat="55.8237312" lon="48.9424725"><time>2021-04-17T08:03:41.003</time></trkpt><trkpt lat="55.8236804" lon="48.9424606"><time>2021-04-17T08:03:44.027</time></trkpt><trkpt lat="55.8236791" lon="48.9424663"><time>2021-04-17T08:03:51.113</time></trkpt><trkpt lat="55.8237230" lon="48.9423927"><time>2021-04-17T08:04:02.003</time></trkpt><trkpt lat="55.8237465" lon="48.9423125"><time>2021-04-17T08:04:15.990</time></trkpt><trkpt lat="55.8236832" lon="48.9422309"><time>2021-04-17T08:04:21.987</time></trkpt><trkpt lat="55.8236403" lon="48.9421930"><time>2021-04-17T08:04:32.983</time></trkpt><trkpt lat="55.8235852" lon="48.9421597"><time>2021-04-17T08:04:36.993</time></trkpt><trkpt lat="55.8235405" lon="48.9421242"><time>2021-04-17T08:04:39.023</time></trkpt><trkpt lat="55.8234861" lon="48.9420717"><time>2021-04-17T08:04:40.960</time></trkpt><trkpt lat="55.8234382" lon="48.9419947"><time>2021-04-17T08:04:42.997</time></trkpt><trkpt lat="55.8233713" lon="48.9419387"><time>2021-04-17T08:04:44.993</time></trkpt><trkpt lat="55.8233174" lon="48.9418757"><time>2021-04-17T08:04:47.007</time></trkpt><trkpt lat="55.8232581" lon="48.9418160"><time>2021-04-17T08:04:48.977</time></trkpt><trkpt lat="55.8232034" lon="48.9417732"><time>2021-04-17T08:04:51.003</time></trkpt><trkpt lat="55.8231555" lon="48.9417256"><time>2021-04-17T08:04:52.990</time></trkpt><trkpt lat="55.8230936" lon="48.9416582"><time>2021-04-17T08:04:55.007</time></trkpt><trkpt lat="55.8230291" lon="48.9416058"><time>2021-04-17T08:04:56.977</time></trkpt><trkpt lat="55.8229546" lon="48.9415598"><time>2021-04-17T08:04:59.987</time></trkpt><trkpt lat="55.8228818" lon="48.9415014"><time>2021-04-17T08:05:01.120</time></trkpt><trkpt lat="55.8228196" lon="48.9414636"><time>2021-04-17T08:05:02.973</time></trkpt><trkpt lat="55.8227552" lon="48.9414244"><time>2021-04-17T08:05:04.990</time></trkpt><trkpt lat="55.8226973" lon="48.9413806"><time>2021-04-17T08:05:07.007</time></trkpt><trkpt lat="55.8226478" lon="48.9413542"><time>2021-04-17T08:05:08.983</time></trkpt><trkpt lat="55.8226029" lon="48.9413167"><time>2021-04-17T08:05:10.990</time></trkpt><trkpt lat="55.8225618" lon="48.9412814"><time>2021-04-17T08:05:12.987</time></trkpt><trkpt lat="55.8225169" lon="48.9412502"><time>2021-04-17T08:05:16.007</time></trkpt><trkpt lat="55.8224898" lon="48.9411804"><time>2021-04-17T08:05:18.023</time></trkpt><trkpt lat="55.8224463" lon="48.9411467"><time>2021-04-17T08:05:21.990</time></trkpt><trkpt lat="55.8223846" lon="48.9410974"><time>2021-04-17T08:05:25.023</time></trkpt><trkpt lat="55.8223337" lon="48.9410366"><time>2021-04-17T08:05:27.060</time></trkpt><trkpt lat="55.8222898" lon="48.9410125"><time>2021-04-17T08:05:29.010</time></trkpt><trkpt lat="55.8222435" lon="48.9409791"><time>2021-04-17T08:05:31.007</time></trkpt><trkpt lat="55.8221885" lon="48.9409292"><time>2021-04-17T08:05:33.010</time></trkpt><trkpt lat="55.8221372" lon="48.9408712"><time>2021-04-17T08:05:35.023</time></trkpt><trkpt lat="55.8220818" lon="48.9408163"><time>2021-04-17T08:05:36.997</time></trkpt><trkpt lat="55.8220339" lon="48.9407457"><time>2021-04-17T08:05:39.023</time></trkpt><trkpt lat="55.8220027" lon="48.9406549"><time>2021-04-17T08:05:41.003</time></trkpt><trkpt lat="55.8219541" lon="48.9405839"><time>2021-04-17T08:05:43.027</time></trkpt><trkpt lat="55.8219207" lon="48.9405244"><time>2021-04-17T08:05:44.990</time></trkpt><trkpt lat="55.8218813" lon="48.9404848"><time>2021-04-17T08:05:49.003</time></trkpt><trkpt lat="55.8218428" lon="48.9404179"><time>2021-04-17T08:05:56.017</time></trkpt><trkpt lat="55.8218282" lon="48.9403308"><time>2021-04-17T08:05:58.010</time></trkpt><trkpt lat="55.8217905" lon="48.9402863"><time>2021-04-17T08:06:00.010</time></trkpt><trkpt lat="55.8217452" lon="48.9402239"><time>2021-04-17T08:06:02.027</time></trkpt><trkpt lat="55.8216963" lon="48.9401641"><time>2021-04-17T08:06:04.020</time></trkpt><trkpt lat="55.8216444" lon="48.9401332"><time>2021-04-17T08:06:05.993</time></trkpt><trkpt lat="55.8215835" lon="48.9400776"><time>2021-04-17T08:06:08.020</time></trkpt><trkpt lat="55.8215357" lon="48.9400535"><time>2021-04-17T08:06:10.023</time></trkpt><trkpt lat="55.8214965" lon="48.9399812"><time>2021-04-17T08:06:13.997</time></trkpt><trkpt lat="55.8214523" lon="48.9399368"><time>2021-04-17T08:06:18.993</time></trkpt><trkpt lat="55.8214172" lon="48.9398705"><time>2021-04-17T08:06:21.997</time></trkpt><trkpt lat="55.8213613" lon="48.9398045"><time>2021-04-17T08:06:24</time></trkpt><trkpt lat="55.8213052" lon="48.9397433"><time>2021-04-17T08:06:26</time></trkpt><trkpt lat="55.8212572" lon="48.9396689"><time>2021-04-17T08:06:27.997</time></trkpt><trkpt lat="55.8211969" lon="48.9396105"><time>2021-04-17T08:06:30.003</time></trkpt><trkpt lat="55.8211256" lon="48.9395600"><time>2021-04-17T08:06:32.013</time></trkpt><trkpt lat="55.8210630" lon="48.9395132"><time>2021-04-17T08:06:33.990</time></trkpt><trkpt lat="55.8210153" lon="48.9394803"><time>2021-04-17T08:06:36.003</time></trkpt><trkpt lat="55.8209597" lon="48.9394388"><time>2021-04-17T08:06:38.027</time></trkpt><trkpt lat="55.8209102" lon="48.9393921"><time>2021-04-17T08:06:41.997</time></trkpt><trkpt lat="55.8208656" lon="48.9393564"><time>2021-04-17T08:06:45.017</time></trkpt><trkpt lat="55.8208336" lon="48.9392895"><time>2021-04-17T08:06:48.003</time></trkpt><trkpt lat="55.8207781" lon="48.9392087"><time>2021-04-17T08:06:50.997</time></trkpt><trkpt lat="55.8207261" lon="48.9391305"><time>2021-04-17T08:06:53</time></trkpt><trkpt lat="55.8206668" lon="48.9390603"><time>2021-04-17T08:06:54.990</time></trkpt><trkpt lat="55.8206133" lon="48.9389855"><time>2021-04-17T08:06:57.007</time></trkpt><trkpt lat="55.8205414" lon="48.9389343"><time>2021-04-17T08:06:58.987</time></trkpt><trkpt lat="55.8204732" lon="48.9389106"><time>2021-04-17T08:07:00.990</time></trkpt><trkpt lat="55.8204143" lon="48.9388736"><time>2021-04-17T08:07:03.020</time></trkpt><trkpt lat="55.8203677" lon="48.9388345"><time>2021-04-17T08:07:06.013</time></trkpt><trkpt lat="55.8203261" lon="48.9388001"><time>2021-04-17T08:07:08.010</time></trkpt><trkpt lat="55.8202800" lon="48.9387697"><time>2021-04-17T08:07:10.003</time></trkpt><trkpt lat="55.8202255" lon="48.9387363"><time>2021-04-17T08:07:11.997</time></trkpt><trkpt lat="55.8201860" lon="48.9386685"><time>2021-04-17T08:07:14.027</time></trkpt><trkpt lat="55.8201238" lon="48.9386011"><time>2021-04-17T08:07:15.970</time></trkpt><trkpt lat="55.8200615" lon="48.9385436"><time>2021-04-17T08:07:20.017</time></trkpt><trkpt lat="55.8200143" lon="48.9385100"><time>2021-04-17T08:07:20.997</time></trkpt><trkpt lat="55.8200309" lon="48.9384358"><time>2021-04-17T08:07:23.977</time></trkpt><trkpt lat="55.8200587" lon="48.9383349"><time>2021-04-17T08:07:27.967</time></trkpt><trkpt lat="55.8200204" lon="48.9383836"><time>2021-04-17T08:07:34.973</time></trkpt><trkpt lat="55.8200204" lon="48.9383836"><time>2021-04-17T08:07:35.953</time></trkpt><trkpt lat="55.8200724" lon="48.9384299"><time>2021-04-17T08:07:35.987</time></trkpt><trkpt lat="55.8201236" lon="48.9385505"><time>2021-04-17T08:07:40.993</time></trkpt><trkpt lat="55.8202181" lon="48.9385834"><time>2021-04-17T08:07:42.987</time></trkpt><trkpt lat="55.8202897" lon="48.9386495"><time>2021-04-17T08:07:45.023</time></trkpt><trkpt lat="55.8203502" lon="48.9387331"><time>2021-04-17T08:07:48</time></trkpt><trkpt lat="55.8203900" lon="48.9387744"><time>2021-04-17T08:08:13</time></trkpt><trkpt lat="55.8203315" lon="48.9387280"><time>2021-04-17T08:08:24</time></trkpt><trkpt lat="55.8202808" lon="48.9386619"><time>2021-04-17T08:08:25.997</time></trkpt><trkpt lat="55.8202121" lon="48.9385712"><time>2021-04-17T08:08:28.007</time></trkpt><trkpt lat="55.8201276" lon="48.9384814"><time>2021-04-17T08:08:29.997</time></trkpt><trkpt lat="55.8200686" lon="48.9384202"><time>2021-04-17T08:08:32.027</time></trkpt><trkpt lat="55.8200220" lon="48.9383501"><time>2021-04-17T08:08:33.990</time></trkpt><trkpt lat="55.8199659" lon="48.9382684"><time>2021-04-17T08:08:36.017</time></trkpt><trkpt lat="55.8199425" lon="48.9381782"><time>2021-04-17T08:08:38.020</time></trkpt><trkpt lat="55.8199641" lon="48.9381051"><time>2021-04-17T08:08:39.990</time></trkpt><trkpt lat="55.8199702" lon="48.9380084"><time>2021-04-17T08:08:42.020</time></trkpt><trkpt lat="55.8199727" lon="48.9378937"><time>2021-04-17T08:08:43.987</time></trkpt><trkpt lat="55.8199811" lon="48.9377942"><time>2021-04-17T08:08:45.990</time></trkpt><trkpt lat="55.8200079" lon="48.9377216"><time>2021-04-17T08:08:48.057</time></trkpt><trkpt lat="55.8200649" lon="48.9376913"><time>2021-04-17T08:08:51.027</time></trkpt><trkpt lat="55.8201244" lon="48.9377239"><time>2021-04-17T08:08:53.027</time></trkpt><trkpt lat="55.8201787" lon="48.9377522"><time>2021-04-17T08:08:54.997</time></trkpt><trkpt lat="55.8202303" lon="48.9377829"><time>2021-04-17T08:08:57.020</time></trkpt><trkpt lat="55.8202868" lon="48.9378237"><time>2021-04-17T08:08:58.993</time></trkpt><trkpt lat="55.8203437" lon="48.9378614"><time>2021-04-17T08:09:01.013</time></trkpt><trkpt lat="55.8204087" lon="48.9378910"><time>2021-04-17T08:09:03.003</time></trkpt><trkpt lat="55.8204697" lon="48.9378448"><time>2021-04-17T08:09:05.993</time></trkpt><trkpt lat="55.8204547" lon="48.9377556"><time>2021-04-17T08:09:16.033</time></trkpt><trkpt lat="55.8204505" lon="48.9376696"><time>2021-04-17T08:09:22.023</time></trkpt><trkpt lat="55.8204901" lon="48.9376294"><time>2021-04-17T08:09:25.983</time></trkpt><trkpt lat="55.8205302" lon="48.9375865"><time>2021-04-17T08:09:30.083</time></trkpt><trkpt lat="55.8205603" lon="48.9376625"><time>2021-04-17T08:09:37.007</time></trkpt><trkpt lat="55.8204935" lon="48.9378128"><time>2021-04-17T08:09:41.007</time></trkpt><trkpt lat="55.8205547" lon="48.9377326"><time>2021-04-17T08:09:49.237</time></trkpt><trkpt lat="55.8206400" lon="48.9376408"><time>2021-04-17T08:09:50.987</time></trkpt><trkpt lat="55.8207060" lon="48.9375440"><time>2021-04-17T08:09:52.967</time></trkpt><trkpt lat="55.8207604" lon="48.9375101"><time>2021-04-17T08:09:53.990</time></trkpt><trkpt lat="55.8207841" lon="48.9374079"><time>2021-04-17T08:09:54.997</time></trkpt><trkpt lat="55.8208409" lon="48.9373516"><time>2021-04-17T08:09:57.317</time></trkpt><trkpt lat="55.8208919" lon="48.9372493"><time>2021-04-17T08:09:58.987</time></trkpt><trkpt lat="55.8209258" lon="48.9371773"><time>2021-04-17T08:10:01</time></trkpt><trkpt lat="55.8209696" lon="48.9371431"><time>2021-04-17T08:10:02.983</time></trkpt><trkpt lat="55.8210241" lon="48.9371134"><time>2021-04-17T08:10:05.143</time></trkpt><trkpt lat="55.8210957" lon="48.9370509"><time>2021-04-17T08:10:08</time></trkpt><trkpt lat="55.8211321" lon="48.9369961"><time>2021-04-17T08:10:09.987</time></trkpt><trkpt lat="55.8211826" lon="48.9369608"><time>2021-04-17T08:10:11.977</time></trkpt><trkpt lat="55.8212451" lon="48.9368763"><time>2021-04-17T08:10:14.997</time></trkpt><trkpt lat="55.8212784" lon="48.9368207"><time>2021-04-17T08:10:16.987</time></trkpt><trkpt lat="55.8213213" lon="48.9367441"><time>2021-04-17T08:10:19.997</time></trkpt><trkpt lat="55.8213770" lon="48.9367072"><time>2021-04-17T08:10:21.990</time></trkpt><trkpt lat="55.8214199" lon="48.9366487"><time>2021-04-17T08:10:23.987</time></trkpt><trkpt lat="55.8214452" lon="48.9365736"><time>2021-04-17T08:10:26.027</time></trkpt><trkpt lat="55.8215034" lon="48.9365260"><time>2021-04-17T08:10:28</time></trkpt><trkpt lat="55.8215435" lon="48.9364523"><time>2021-04-17T08:10:31.020</time></trkpt><trkpt lat="55.8215788" lon="48.9364011"><time>2021-04-17T08:10:43.023</time></trkpt><trkpt lat="55.8216245" lon="48.9363347"><time>2021-04-17T08:10:45.033</time></trkpt><trkpt lat="55.8216801" lon="48.9362895"><time>2021-04-17T08:10:47.023</time></trkpt><trkpt lat="55.8217351" lon="48.9362885"><time>2021-04-17T08:10:49.037</time></trkpt><trkpt lat="55.8218095" lon="48.9362267"><time>2021-04-17T08:10:50.990</time></trkpt><trkpt lat="55.8218719" lon="48.9361621"><time>2021-04-17T08:10:52.987</time></trkpt><trkpt lat="55.8219217" lon="48.9361027"><time>2021-04-17T08:10:55.003</time></trkpt><trkpt lat="55.8219670" lon="48.9360392"><time>2021-04-17T08:10:57.007</time></trkpt><trkpt lat="55.8220211" lon="48.9359640"><time>2021-04-17T08:10:59.987</time></trkpt><trkpt lat="55.8220733" lon="48.9358851"><time>2021-04-17T08:11:03.017</time></trkpt><trkpt lat="55.8221036" lon="48.9358261"><time>2021-04-17T08:11:05.017</time></trkpt><trkpt lat="55.8221485" lon="48.9357960"><time>2021-04-17T08:11:06.987</time></trkpt><trkpt lat="55.8222036" lon="48.9357849"><time>2021-04-17T08:11:12.993</time></trkpt><trkpt lat="55.8222435" lon="48.9357402"><time>2021-04-17T08:11:17</time></trkpt><trkpt lat="55.8222286" lon="48.9356587"><time>2021-04-17T08:11:22.983</time></trkpt><trkpt lat="55.8222485" lon="48.9355832"><time>2021-04-17T08:11:24.990</time></trkpt><trkpt lat="55.8222866" lon="48.9355242"><time>2021-04-17T08:11:26.993</time></trkpt><trkpt lat="55.8223240" lon="48.9354785"><time>2021-04-17T08:12:07.983</time></trkpt><trkpt lat="55.8223650" lon="48.9355129"><time>2021-04-17T08:12:58.983</time></trkpt><trkpt lat="55.8223826" lon="48.9354359"><time>2021-04-17T08:13:26.990</time></trkpt><trkpt lat="55.8223553" lon="48.9353466"><time>2021-04-17T08:13:30.970</time></trkpt><trkpt lat="55.8222892" lon="48.9353484"><time>2021-04-17T08:14:46.983</time></trkpt><trkpt lat="55.8222593" lon="48.9354598"><time>2021-04-17T08:15:21.997</time></trkpt><trkpt lat="55.8222390" lon="48.9355388"><time>2021-04-17T08:15:24.970</time></trkpt><trkpt lat="55.8222105" lon="48.9356245"><time>2021-04-17T08:15:28.983</time></trkpt><trkpt lat="55.8221830" lon="48.9356966"><time>2021-04-17T08:15:31.970</time></trkpt><trkpt lat="55.8221561" lon="48.9358002"><time>2021-04-17T08:15:35</time></trkpt><trkpt lat="55.8221433" lon="48.9358848"><time>2021-04-17T08:15:36.970</time></trkpt><trkpt lat="55.8221292" lon="48.9359814"><time>2021-04-17T08:15:39.987</time></trkpt><trkpt lat="55.8221347" lon="48.9360761"><time>2021-04-17T08:15:41.973</time></trkpt><trkpt lat="55.8221416" lon="48.9361610"><time>2021-04-17T08:15:43.987</time></trkpt><trkpt lat="55.8221391" lon="48.9362549"><time>2021-04-17T08:15:45.987</time></trkpt><trkpt lat="55.8221429" lon="48.9363484"><time>2021-04-17T08:15:47.973</time></trkpt><trkpt lat="55.8221592" lon="48.9364688"><time>2021-04-17T08:15:50.977</time></trkpt><trkpt lat="55.8221825" lon="48.9365546"><time>2021-04-17T08:15:54.973</time></trkpt><trkpt lat="55.8222180" lon="48.9366223"><time>2021-04-17T08:15:58.973</time></trkpt><trkpt lat="55.8222455" lon="48.9367124"><time>2021-04-17T08:16:04</time></trkpt><trkpt lat="55.8222764" lon="48.9367907"><time>2021-04-17T08:16:07.967</time></trkpt><trkpt lat="55.8223001" lon="48.9368590"><time>2021-04-17T08:16:10.977</time></trkpt><trkpt lat="55.8223433" lon="48.9369211"><time>2021-04-17T08:16:13.967</time></trkpt><trkpt lat="55.8223562" lon="48.9370080"><time>2021-04-17T08:16:19.993</time></trkpt><trkpt lat="55.8223797" lon="48.9370818"><time>2021-04-17T08:16:22.977</time></trkpt><trkpt lat="55.8224262" lon="48.9371416"><time>2021-04-17T08:16:25.007</time></trkpt><trkpt lat="55.8224582" lon="48.9372003"><time>2021-04-17T08:16:27.007</time></trkpt><trkpt lat="55.8224937" lon="48.9372647"><time>2021-04-17T08:16:28.970</time></trkpt><trkpt lat="55.8215311" lon="48.9359466"><time>2021-04-17T08:28:43.587</time></trkpt><trkpt lat="55.8215311" lon="48.9359466"><time>2021-04-17T08:28:44.540</time></trkpt><trkpt lat="55.8215341" lon="48.9358670"><time>2021-04-17T08:28:45.590</time></trkpt><trkpt lat="55.8215623" lon="48.9358033"><time>2021-04-17T08:28:49.033</time></trkpt><trkpt lat="55.8215829" lon="48.9357243"><time>2021-04-17T08:29:26.590</time></trkpt><trkpt lat="55.8215602" lon="48.9356505"><time>2021-04-17T08:29:31.613</time></trkpt><trkpt lat="55.8215244" lon="48.9355653"><time>2021-04-17T08:29:35.600</time></trkpt><trkpt lat="55.8215010" lon="48.9354681"><time>2021-04-17T08:29:38.583</time></trkpt><trkpt lat="55.8214995" lon="48.9353860"><time>2021-04-17T08:29:42.627</time></trkpt><trkpt lat="55.8215179" lon="48.9353117"><time>2021-04-17T08:29:45.627</time></trkpt><trkpt lat="55.8215441" lon="48.9352070"><time>2021-04-17T08:29:49.627</time></trkpt><trkpt lat="55.8215710" lon="48.9351236"><time>2021-04-17T08:29:52.607</time></trkpt><trkpt lat="55.8215838" lon="48.9350452"><time>2021-04-17T08:29:55.623</time></trkpt><trkpt lat="55.8216050" lon="48.9349394"><time>2021-04-17T08:29:57.650</time></trkpt><trkpt lat="55.8216251" lon="48.9348397"><time>2021-04-17T08:29:59.627</time></trkpt><trkpt lat="55.8216385" lon="48.9347395"><time>2021-04-17T08:30:01.620</time></trkpt><trkpt lat="55.8216608" lon="48.9346496"><time>2021-04-17T08:30:03.613</time></trkpt><trkpt lat="55.8216713" lon="48.9345714"><time>2021-04-17T08:30:05.633</time></trkpt><trkpt lat="55.8216798" lon="48.9344830"><time>2021-04-17T08:30:07.627</time></trkpt><trkpt lat="55.8216829" lon="48.9343895"><time>2021-04-17T08:30:09.653</time></trkpt><trkpt lat="55.8217215" lon="48.9343016"><time>2021-04-17T08:30:12.650</time></trkpt><trkpt lat="55.8217365" lon="48.9342215"><time>2021-04-17T08:30:14.660</time></trkpt><trkpt lat="55.8217697" lon="48.9341450"><time>2021-04-17T08:30:16.597</time></trkpt><trkpt lat="55.8218000" lon="48.9340782"><time>2021-04-17T08:30:18.630</time></trkpt><trkpt lat="55.8218396" lon="48.9339867"><time>2021-04-17T08:30:21.610</time></trkpt><trkpt lat="55.8218711" lon="48.9339211"><time>2021-04-17T08:30:23.597</time></trkpt><trkpt lat="55.8218901" lon="48.9338267"><time>2021-04-17T08:31:18.653</time></trkpt><trkpt lat="55.8218682" lon="48.9337343"><time>2021-04-17T08:31:21.650</time></trkpt><trkpt lat="55.8218310" lon="48.9336855"><time>2021-04-17T08:31:31.600</time></trkpt><trkpt lat="55.8238860" lon="48.9291486"><time>2021-04-17T08:39:39.953</time></trkpt><trkpt lat="55.8238946" lon="48.9291252"><time>2021-04-17T08:39:41.380</time></trkpt><trkpt lat="55.8239263" lon="48.9290764"><time>2021-04-17T08:39:43.977</time></trkpt><trkpt lat="55.8238716" lon="48.9290588"><time>2021-04-17T08:40:12.007</time></trkpt><trkpt lat="55.8239276" lon="48.9290597"><time>2021-04-17T08:40:57.953</time></trkpt><trkpt lat="55.8239919" lon="48.9290675"><time>2021-04-17T08:40:59.980</time></trkpt><trkpt lat="55.8240632" lon="48.9290534"><time>2021-04-17T08:41:01.970</time></trkpt><trkpt lat="55.8241212" lon="48.9290657"><time>2021-04-17T08:41:03.977</time></trkpt><trkpt lat="55.8241775" lon="48.9291509"><time>2021-04-17T08:41:06.003</time></trkpt><trkpt lat="55.8242178" lon="48.9292219"><time>2021-04-17T08:41:06.983</time></trkpt><trkpt lat="55.8242845" lon="48.9292431"><time>2021-04-17T08:41:09.007</time></trkpt><trkpt lat="55.8243351" lon="48.9292503"><time>2021-04-17T08:41:09.977</time></trkpt><trkpt lat="55.8244021" lon="48.9292614"><time>2021-04-17T08:41:12.003</time></trkpt><trkpt lat="55.8244483" lon="48.9292402"><time>2021-04-17T08:41:14.013</time></trkpt><trkpt lat="55.8245156" lon="48.9292360"><time>2021-04-17T08:41:16.010</time></trkpt><trkpt lat="55.8245766" lon="48.9291913"><time>2021-04-17T08:41:17.967</time></trkpt><trkpt lat="55.8246460" lon="48.9291429"><time>2021-04-17T08:41:20.977</time></trkpt><trkpt lat="55.8247091" lon="48.9291303"><time>2021-04-17T08:41:22.980</time></trkpt><trkpt lat="55.8247787" lon="48.9291505"><time>2021-04-17T08:41:25.070</time></trkpt><trkpt lat="55.8248337" lon="48.9291785"><time>2021-04-17T08:41:27.987</time></trkpt><trkpt lat="55.8248688" lon="48.9291260"><time>2021-04-17T08:41:32.970</time></trkpt><trkpt lat="55.8249179" lon="48.9291896"><time>2021-04-17T08:41:39.017</time></trkpt><trkpt lat="55.8249452" lon="48.9292559"><time>2021-04-17T08:41:42.977</time></trkpt><trkpt lat="55.8249703" lon="48.9291456"><time>2021-04-17T08:41:48.967</time></trkpt><trkpt lat="55.8250018" lon="48.9290503"><time>2021-04-17T08:41:50.983</time></trkpt><trkpt lat="55.8250490" lon="48.9289892"><time>2021-04-17T08:41:54.007</time></trkpt><trkpt lat="55.8251029" lon="48.9289887"><time>2021-04-17T08:41:55.977</time></trkpt><trkpt lat="55.8251646" lon="48.9289744"><time>2021-04-17T08:41:57.987</time></trkpt><trkpt lat="55.8252113" lon="48.9289417"><time>2021-04-17T08:41:59.953</time></trkpt><trkpt lat="55.8252571" lon="48.9289375"><time>2021-04-17T08:42:01.940</time></trkpt><trkpt lat="55.8253137" lon="48.9289648"><time>2021-04-17T08:42:03.957</time></trkpt><trkpt lat="55.8252591" lon="48.9289663"><time>2021-04-17T08:42:08.953</time></trkpt><trkpt lat="55.8253205" lon="48.9290381"><time>2021-04-17T08:42:25.957</time></trkpt><trkpt lat="55.8253885" lon="48.9290826"><time>2021-04-17T08:42:27.977</time></trkpt><trkpt lat="55.8254570" lon="48.9291280"><time>2021-04-17T08:42:29.943</time></trkpt><trkpt lat="55.8255098" lon="48.9291291"><time>2021-04-17T08:42:32.947</time></trkpt><trkpt lat="55.8255549" lon="48.9291247"><time>2021-04-17T08:42:34.947</time></trkpt><trkpt lat="55.8256023" lon="48.9291364"><time>2021-04-17T08:42:36.973</time></trkpt><trkpt lat="55.8256512" lon="48.9291483"><time>2021-04-17T08:42:38.953</time></trkpt><trkpt lat="55.8257424" lon="48.9292114"><time>2021-04-17T08:43:05.967</time></trkpt><trkpt lat="55.8257903" lon="48.9292589"><time>2021-04-17T08:43:06.963</time></trkpt><trkpt lat="55.8258577" lon="48.9293191"><time>2021-04-17T08:43:08.973</time></trkpt><trkpt lat="55.8259158" lon="48.9293591"><time>2021-04-17T08:43:10.977</time></trkpt><trkpt lat="55.8259844" lon="48.9293930"><time>2021-04-17T08:43:13.007</time></trkpt><trkpt lat="55.8260427" lon="48.9294362"><time>2021-04-17T08:43:16.013</time></trkpt><trkpt lat="55.8261026" lon="48.9294848"><time>2021-04-17T08:43:18.980</time></trkpt><trkpt lat="55.8261720" lon="48.9294862"><time>2021-04-17T08:43:22.007</time></trkpt><trkpt lat="55.8262178" lon="48.9294925"><time>2021-04-17T08:43:24.977</time></trkpt><trkpt lat="55.8262662" lon="48.9294987"><time>2021-04-17T08:43:28.007</time></trkpt><trkpt lat="55.8263145" lon="48.9295011"><time>2021-04-17T08:43:31.977</time></trkpt><trkpt lat="55.8263623" lon="48.9294999"><time>2021-04-17T08:43:33.983</time></trkpt><trkpt lat="55.8264107" lon="48.9294939"><time>2021-04-17T08:43:36.023</time></trkpt><trkpt lat="55.8264657" lon="48.9295019"><time>2021-04-17T08:43:37.977</time></trkpt><trkpt lat="55.8265140" lon="48.9294968"><time>2021-04-17T08:43:39.993</time></trkpt><trkpt lat="55.8265674" lon="48.9295215"><time>2021-04-17T08:43:42.010</time></trkpt><trkpt lat="55.8266198" lon="48.9295484"><time>2021-04-17T08:43:43.987</time></trkpt><trkpt lat="55.8266686" lon="48.9295685"><time>2021-04-17T08:43:45.977</time></trkpt><trkpt lat="55.8267127" lon="48.9296220"><time>2021-04-17T08:43:49.987</time></trkpt><trkpt lat="55.8267162" lon="48.9296096"><time>2021-04-17T08:43:56.620</time></trkpt><trkpt lat="55.8266903" lon="48.9296924"><time>2021-04-17T08:45:03.047</time></trkpt><trkpt lat="55.8267354" lon="48.9296670"><time>2021-04-17T08:45:23.977</time></trkpt><trkpt lat="55.8267845" lon="48.9295810"><time>2021-04-17T08:45:26.953</time></trkpt><trkpt lat="55.8268502" lon="48.9295438"><time>2021-04-17T08:45:29.970</time></trkpt><trkpt lat="55.8269206" lon="48.9295344"><time>2021-04-17T08:45:31.973</time></trkpt><trkpt lat="55.8269760" lon="48.9294734"><time>2021-04-17T08:45:35</time></trkpt><trkpt lat="55.8270106" lon="48.9294195"><time>2021-04-17T08:45:36.977</time></trkpt><trkpt lat="55.8270631" lon="48.9293642"><time>2021-04-17T08:45:39.977</time></trkpt><trkpt lat="55.8271094" lon="48.9293425"><time>2021-04-17T08:45:43.003</time></trkpt><trkpt lat="55.8271602" lon="48.9293209"><time>2021-04-17T08:45:45.973</time></trkpt><trkpt lat="55.8272030" lon="48.9292834"><time>2021-04-17T08:45:48.953</time></trkpt><trkpt lat="55.8272392" lon="48.9292270"><time>2021-04-17T08:45:52.987</time></trkpt><trkpt lat="55.8272963" lon="48.9292137"><time>2021-04-17T08:46:05.993</time></trkpt><trkpt lat="55.8273406" lon="48.9291820"><time>2021-04-17T08:46:10.980</time></trkpt><trkpt lat="55.8273870" lon="48.9291406"><time>2021-04-17T08:46:15.983</time></trkpt><trkpt lat="55.8274321" lon="48.9291560"><time>2021-04-17T08:46:24.990</time></trkpt><trkpt lat="55.8274966" lon="48.9291868"><time>2021-04-17T08:46:27.977</time></trkpt><trkpt lat="55.8275607" lon="48.9291736"><time>2021-04-17T08:46:30.973</time></trkpt><trkpt lat="55.8276078" lon="48.9291880"><time>2021-04-17T08:46:34.980</time></trkpt><trkpt lat="55.8276604" lon="48.9291878"><time>2021-04-17T08:46:38.983</time></trkpt><trkpt lat="55.8277113" lon="48.9291782"><time>2021-04-17T08:46:44.973</time></trkpt><trkpt lat="55.8277650" lon="48.9292136"><time>2021-04-17T08:46:46.983</time></trkpt><trkpt lat="55.8278371" lon="48.9292457"><time>2021-04-17T08:46:48.987</time></trkpt><trkpt lat="55.8278965" lon="48.9292625"><time>2021-04-17T08:46:50.990</time></trkpt><trkpt lat="55.8279666" lon="48.9292860"><time>2021-04-17T08:46:52.963</time></trkpt><trkpt lat="55.8280293" lon="48.9292959"><time>2021-04-17T08:46:54.987</time></trkpt><trkpt lat="55.8280772" lon="48.9292923"><time>2021-04-17T08:46:57.003</time></trkpt><trkpt lat="55.8281345" lon="48.9292785"><time>2021-04-17T08:46:58.997</time></trkpt><trkpt lat="55.8281894" lon="48.9293094"><time>2021-04-17T08:47:01.007</time></trkpt><trkpt lat="55.8282438" lon="48.9293055"><time>2021-04-17T08:47:02.977</time></trkpt><trkpt lat="55.8283090" lon="48.9292900"><time>2021-04-17T08:47:04.980</time></trkpt><trkpt lat="55.8283573" lon="48.9292404"><time>2021-04-17T08:47:06.980</time></trkpt><trkpt lat="55.8284072" lon="48.9291618"><time>2021-04-17T08:47:08.967</time></trkpt><trkpt lat="55.8284531" lon="48.9291124"><time>2021-04-17T08:47:10.977</time></trkpt><trkpt lat="55.8285101" lon="48.9290683"><time>2021-04-17T08:47:12.980</time></trkpt><trkpt lat="55.8285700" lon="48.9290349"><time>2021-04-17T08:47:14.977</time></trkpt><trkpt lat="55.8286406" lon="48.9290048"><time>2021-04-17T08:47:17.067</time></trkpt><trkpt lat="55.8286954" lon="48.9290150"><time>2021-04-17T08:47:19.027</time></trkpt><trkpt lat="55.8287427" lon="48.9290116"><time>2021-04-17T08:47:20.980</time></trkpt><trkpt lat="55.8287926" lon="48.9289814"><time>2021-04-17T08:47:23.983</time></trkpt><trkpt lat="55.8288480" lon="48.9289493"><time>2021-04-17T08:47:26.977</time></trkpt><trkpt lat="55.8288863" lon="48.9288939"><time>2021-04-17T08:47:28.960</time></trkpt><trkpt lat="55.8289330" lon="48.9288199"><time>2021-04-17T08:47:30.990</time></trkpt><trkpt lat="55.8289673" lon="48.9287487"><time>2021-04-17T08:47:33.973</time></trkpt><trkpt lat="55.8290299" lon="48.9287143"><time>2021-04-17T08:47:36.933</time></trkpt><trkpt lat="55.8290690" lon="48.9286362"><time>2021-04-17T08:47:38.943</time></trkpt><trkpt lat="55.8291213" lon="48.9285707"><time>2021-04-17T08:47:40.963</time></trkpt><trkpt lat="55.8291958" lon="48.9285494"><time>2021-04-17T08:47:41.937</time></trkpt><trkpt lat="55.8292435" lon="48.9286104"><time>2021-04-17T08:47:43.950</time></trkpt><trkpt lat="55.8292791" lon="48.9285591"><time>2021-04-17T08:47:46.987</time></trkpt><trkpt lat="55.8293387" lon="48.9285471"><time>2021-04-17T08:47:48.960</time></trkpt><trkpt lat="55.8293339" lon="48.9284576"><time>2021-04-17T08:47:57.933</time></trkpt><trkpt lat="55.8293465" lon="48.9284295"><time>2021-04-17T08:47:59.603</time></trkpt><trkpt lat="55.8293330" lon="48.9285534"><time>2021-04-17T08:48:17.980</time></trkpt><trkpt lat="55.8292970" lon="48.9286063"><time>2021-04-17T08:48:19.937</time></trkpt><trkpt lat="55.8292582" lon="48.9286513"><time>2021-04-17T08:48:21.963</time></trkpt><trkpt lat="55.8292082" lon="48.9286850"><time>2021-04-17T08:48:24.947</time></trkpt><trkpt lat="55.8291760" lon="48.9287418"><time>2021-04-17T08:48:26.950</time></trkpt><trkpt lat="55.8292219" lon="48.9287060"><time>2021-04-17T08:48:41.973</time></trkpt><trkpt lat="55.8292722" lon="48.9287150"><time>2021-04-17T08:48:44.967</time></trkpt><trkpt lat="55.8293059" lon="48.9287681"><time>2021-04-17T08:48:48.970</time></trkpt><trkpt lat="55.8293408" lon="48.9288217"><time>2021-04-17T08:48:53.070</time></trkpt><trkpt lat="55.8293670" lon="48.9289074"><time>2021-04-17T08:48:59.983</time></trkpt><trkpt lat="55.8293959" lon="48.9289822"><time>2021-04-17T08:49:02.987</time></trkpt><trkpt lat="55.8294335" lon="48.9290349"><time>2021-04-17T08:49:05.977</time></trkpt><trkpt lat="55.8294535" lon="48.9291078"><time>2021-04-17T08:49:10.947</time></trkpt><trkpt lat="55.8294687" lon="48.9292251"><time>2021-04-17T08:49:16.953</time></trkpt><trkpt lat="55.8294853" lon="48.9293094"><time>2021-04-17T08:49:17.957</time></trkpt><trkpt lat="55.8295066" lon="48.9294118"><time>2021-04-17T08:49:19.960</time></trkpt><trkpt lat="55.8295662" lon="48.9294674"><time>2021-04-17T08:49:21.967</time></trkpt><trkpt lat="55.8295754" lon="48.9295613"><time>2021-04-17T08:49:23.970</time></trkpt><trkpt lat="55.8295885" lon="48.9296542"><time>2021-04-17T08:49:26.957</time></trkpt><trkpt lat="55.8296515" lon="48.9296722"><time>2021-04-17T08:49:30.957</time></trkpt><trkpt lat="55.8296965" lon="48.9296558"><time>2021-04-17T08:49:34.947</time></trkpt><trkpt lat="55.8297454" lon="48.9296990"><time>2021-04-17T08:49:50.967</time></trkpt><trkpt lat="55.8297745" lon="48.9296004"><time>2021-04-17T08:49:53.963</time></trkpt><trkpt lat="55.8298321" lon="48.9296316"><time>2021-04-17T08:49:59.970</time></trkpt><trkpt lat="55.8298852" lon="48.9296244"><time>2021-04-17T08:50:02.973</time></trkpt><trkpt lat="55.8299452" lon="48.9295887"><time>2021-04-17T08:50:05.977</time></trkpt><trkpt lat="55.8299900" lon="48.9295769"><time>2021-04-17T08:50:07.970</time></trkpt><trkpt lat="55.8300476" lon="48.9295796"><time>2021-04-17T08:50:10.980</time></trkpt><trkpt lat="55.8301124" lon="48.9296271"><time>2021-04-17T08:50:12.970</time></trkpt><trkpt lat="55.8301773" lon="48.9296640"><time>2021-04-17T08:50:14.980</time></trkpt><trkpt lat="55.8302312" lon="48.9297229"><time>2021-04-17T08:50:16.977</time></trkpt><trkpt lat="55.8302794" lon="48.9298192"><time>2021-04-17T08:50:18.950</time></trkpt><trkpt lat="55.8303229" lon="48.9299147"><time>2021-04-17T08:50:20.960</time></trkpt><trkpt lat="55.8303703" lon="48.9300019"><time>2021-04-17T08:50:22.977</time></trkpt><trkpt lat="55.8304053" lon="48.9300773"><time>2021-04-17T08:50:24.957</time></trkpt><trkpt lat="55.8304253" lon="48.9301586"><time>2021-04-17T08:50:26.960</time></trkpt><trkpt lat="55.8304511" lon="48.9302452"><time>2021-04-17T08:50:28.970</time></trkpt><trkpt lat="55.8304801" lon="48.9303243"><time>2021-04-17T08:50:30.960</time></trkpt><trkpt lat="55.8305079" lon="48.9304292"><time>2021-04-17T08:50:32.943</time></trkpt><trkpt lat="55.8305135" lon="48.9305283"><time>2021-04-17T08:50:34.953</time></trkpt><trkpt lat="55.8305143" lon="48.9306263"><time>2021-04-17T08:50:36.967</time></trkpt><trkpt lat="55.8305302" lon="48.9307016"><time>2021-04-17T08:50:59.957</time></trkpt><trkpt lat="55.8305499" lon="48.9307902"><time>2021-04-17T08:51:03.963</time></trkpt><trkpt lat="55.8305052" lon="48.9308142"><time>2021-04-17T08:51:08.963</time></trkpt><trkpt lat="55.8305131" lon="48.9309133"><time>2021-04-17T08:51:16.977</time></trkpt><trkpt lat="55.8305219" lon="48.9310154"><time>2021-04-17T08:51:19.973</time></trkpt><trkpt lat="55.8305135" lon="48.9311408"><time>2021-04-17T08:51:22.953</time></trkpt><trkpt lat="55.8304963" lon="48.9312722"><time>2021-04-17T08:51:25.957</time></trkpt><trkpt lat="55.8308149" lon="48.9323153"><time>2021-04-17T08:55:30.130</time></trkpt><trkpt lat="55.8308736" lon="48.9323391"><time>2021-04-17T08:55:32.127</time></trkpt><trkpt lat="55.8308249" lon="48.9323549"><time>2021-04-17T08:55:39.113</time></trkpt><trkpt lat="55.8308156" lon="48.9323539"><time>2021-04-17T08:55:43.513</time></trkpt><trkpt lat="55.8309007" lon="48.9324027"><time>2021-04-17T08:55:50.133</time></trkpt><trkpt lat="55.8309712" lon="48.9324202"><time>2021-04-17T08:55:51.133</time></trkpt><trkpt lat="55.8310523" lon="48.9324859"><time>2021-04-17T08:55:53.137</time></trkpt><trkpt lat="55.8311171" lon="48.9325247"><time>2021-04-17T08:55:55.140</time></trkpt><trkpt lat="55.8311740" lon="48.9325764"><time>2021-04-17T08:55:57.150</time></trkpt><trkpt lat="55.8312040" lon="48.9326688"><time>2021-04-17T08:55:59.133</time></trkpt><trkpt lat="55.8311782" lon="48.9327660"><time>2021-04-17T08:56:01.183</time></trkpt><trkpt lat="55.8311388" lon="48.9328617"><time>2021-04-17T08:56:03.133</time></trkpt><trkpt lat="55.8311037" lon="48.9329788"><time>2021-04-17T08:56:05.143</time></trkpt><trkpt lat="55.8310790" lon="48.9330807"><time>2021-04-17T08:56:07.133</time></trkpt><trkpt lat="55.8310559" lon="48.9331742"><time>2021-04-17T08:56:09.150</time></trkpt><trkpt lat="55.8310345" lon="48.9332842"><time>2021-04-17T08:56:11.130</time></trkpt><trkpt lat="55.8310180" lon="48.9334267"><time>2021-04-17T08:56:13.143</time></trkpt><trkpt lat="55.8310106" lon="48.9335156"><time>2021-04-17T08:56:31.163</time></trkpt><trkpt lat="55.8309732" lon="48.9335743"><time>2021-04-17T08:56:34.137</time></trkpt><trkpt lat="55.8309210" lon="48.9335756"><time>2021-04-17T08:56:37.137</time></trkpt><trkpt lat="55.8309395" lon="48.9336530"><time>2021-04-17T08:56:39.143</time></trkpt><trkpt lat="55.8308953" lon="48.9337118"><time>2021-04-17T08:56:43.223</time></trkpt><trkpt lat="55.8308318" lon="48.9337067"><time>2021-04-17T08:56:46.197</time></trkpt><trkpt lat="55.8307798" lon="48.9337623"><time>2021-04-17T08:56:49.100</time></trkpt><trkpt lat="55.8307345" lon="48.9337885"><time>2021-04-17T08:56:51.140</time></trkpt><trkpt lat="55.8306861" lon="48.9338198"><time>2021-04-17T08:56:53.130</time></trkpt><trkpt lat="55.8306337" lon="48.9338648"><time>2021-04-17T08:56:55.140</time></trkpt><trkpt lat="55.8305772" lon="48.9339093"><time>2021-04-17T08:56:57.140</time></trkpt><trkpt lat="55.8305210" lon="48.9339337"><time>2021-04-17T08:56:59.147</time></trkpt><trkpt lat="55.8304726" lon="48.9339773"><time>2021-04-17T08:57:01.123</time></trkpt><trkpt lat="55.8304440" lon="48.9340604"><time>2021-04-17T08:57:09.137</time></trkpt><trkpt lat="55.8303965" lon="48.9340481"><time>2021-04-17T08:57:11.133</time></trkpt><trkpt lat="55.8303457" lon="48.9340270"><time>2021-04-17T08:57:14.113</time></trkpt><trkpt lat="55.8303036" lon="48.9340837"><time>2021-04-17T08:57:18.133</time></trkpt><trkpt lat="55.8303498" lon="48.9340851"><time>2021-04-17T08:57:22.127</time></trkpt><trkpt lat="55.8303317" lon="48.9341685"><time>2021-04-17T08:57:30.120</time></trkpt><trkpt lat="55.8303386" lon="48.9342718"><time>2021-04-17T08:57:33.143</time></trkpt><trkpt lat="55.8303461" lon="48.9343553"><time>2021-04-17T08:57:35.143</time></trkpt><trkpt lat="55.8303549" lon="48.9344448"><time>2021-04-17T08:57:37.177</time></trkpt><trkpt lat="55.8303658" lon="48.9345430"><time>2021-04-17T08:57:39.157</time></trkpt><trkpt lat="55.8303835" lon="48.9346533"><time>2021-04-17T08:57:41.153</time></trkpt><trkpt lat="55.8303860" lon="48.9347780"><time>2021-04-17T08:57:43.213</time></trkpt><trkpt lat="55.8303814" lon="48.9348943"><time>2021-04-17T08:57:45.173</time></trkpt><trkpt lat="55.8303769" lon="48.9350002"><time>2021-04-17T08:57:47.170</time></trkpt><trkpt lat="55.8303449" lon="48.9350650"><time>2021-04-17T08:57:49.173</time></trkpt><trkpt lat="55.8303046" lon="48.9351250"><time>2021-04-17T08:57:51.147</time></trkpt><trkpt lat="55.8302690" lon="48.9351846"><time>2021-04-17T08:57:53.157</time></trkpt><trkpt lat="55.8302490" lon="48.9352581"><time>2021-04-17T08:57:55.137</time></trkpt><trkpt lat="55.8302390" lon="48.9353488"><time>2021-04-17T08:57:59.103</time></trkpt><trkpt lat="55.8302429" lon="48.9354471"><time>2021-04-17T08:58:03.110</time></trkpt><trkpt lat="55.8302526" lon="48.9355424"><time>2021-04-17T08:58:06.110</time></trkpt><trkpt lat="55.8302555" lon="48.9356316"><time>2021-04-17T08:58:08.117</time></trkpt><trkpt lat="55.8302459" lon="48.9357119"><time>2021-04-17T08:58:10.120</time></trkpt><trkpt lat="55.8302412" lon="48.9357994"><time>2021-04-17T08:58:14.107</time></trkpt><trkpt lat="55.8302432" lon="48.9358905"><time>2021-04-17T08:58:20.137</time></trkpt><trkpt lat="55.8302184" lon="48.9358038"><time>2021-04-17T08:58:23.143</time></trkpt><trkpt lat="55.8302119" lon="48.9358857"><time>2021-04-17T08:58:31.117</time></trkpt><trkpt lat="55.8301730" lon="48.9358357"><time>2021-04-17T08:58:34.140</time></trkpt><trkpt lat="55.8302049" lon="48.9358920"><time>2021-04-17T08:59:22.143</time></trkpt><trkpt lat="55.8302563" lon="48.9359196"><time>2021-04-17T08:59:36.167</time></trkpt><trkpt lat="55.8303051" lon="48.9359293"><time>2021-04-17T08:59:39.127</time></trkpt><trkpt lat="55.8303604" lon="48.9359641"><time>2021-04-17T08:59:44.123</time></trkpt><trkpt lat="55.8304051" lon="48.9360008"><time>2021-04-17T08:59:48.107</time></trkpt><trkpt lat="55.8304620" lon="48.9360294"><time>2021-04-17T08:59:53.127</time></trkpt><trkpt lat="55.8305273" lon="48.9360888"><time>2021-04-17T08:59:56.147</time></trkpt><trkpt lat="55.8305606" lon="48.9361783"><time>2021-04-17T08:59:58.133</time></trkpt><trkpt lat="55.8305793" lon="48.9362814"><time>2021-04-17T09:00:00.117</time></trkpt><trkpt lat="55.8305863" lon="48.9363677"><time>2021-04-17T09:00:03.140</time></trkpt><trkpt lat="55.8306131" lon="48.9364411"><time>2021-04-17T09:00:07.103</time></trkpt><trkpt lat="55.8306736" lon="48.9364582"><time>2021-04-17T09:00:10.180</time></trkpt><trkpt lat="55.8307282" lon="48.9364343"><time>2021-04-17T09:00:13.113</time></trkpt><trkpt lat="55.8307862" lon="48.9364529"><time>2021-04-17T09:00:15.213</time></trkpt><trkpt lat="55.8308511" lon="48.9364606"><time>2021-04-17T09:00:17.127</time></trkpt><trkpt lat="55.8309065" lon="48.9364779"><time>2021-04-17T09:00:19.130</time></trkpt><trkpt lat="55.8309411" lon="48.9365738"><time>2021-04-17T09:00:22.170</time></trkpt><trkpt lat="55.8309839" lon="48.9366403"><time>2021-04-17T09:00:24.150</time></trkpt><trkpt lat="55.8310399" lon="48.9366604"><time>2021-04-17T09:00:26.153</time></trkpt><trkpt lat="55.8310932" lon="48.9366667"><time>2021-04-17T09:00:28.177</time></trkpt><trkpt lat="55.8311449" lon="48.9366882"><time>2021-04-17T09:00:30.157</time></trkpt><trkpt lat="55.8312056" lon="48.9367081"><time>2021-04-17T09:00:32.167</time></trkpt><trkpt lat="55.8312551" lon="48.9367198"><time>2021-04-17T09:00:34.163</time></trkpt><trkpt lat="55.8313057" lon="48.9367005"><time>2021-04-17T09:00:39.173</time></trkpt><trkpt lat="55.8313619" lon="48.9367007"><time>2021-04-17T09:00:43.133</time></trkpt><trkpt lat="55.8314167" lon="48.9367182"><time>2021-04-17T09:00:47.120</time></trkpt><trkpt lat="55.8314647" lon="48.9367152"><time>2021-04-17T09:00:54.117</time></trkpt><trkpt lat="55.8315199" lon="48.9367286"><time>2021-04-17T09:00:58.147</time></trkpt><trkpt lat="55.8315640" lon="48.9366994"><time>2021-04-17T09:01:01.137</time></trkpt><trkpt lat="55.8316096" lon="48.9366890"><time>2021-04-17T09:01:03.210</time></trkpt><trkpt lat="55.8316803" lon="48.9366991"><time>2021-04-17T09:01:05.137</time></trkpt><trkpt lat="55.8317448" lon="48.9367340"><time>2021-04-17T09:01:07.143</time></trkpt><trkpt lat="55.8318113" lon="48.9367771"><time>2021-04-17T09:01:09.120</time></trkpt><trkpt lat="55.8318802" lon="48.9368234"><time>2021-04-17T09:01:11.137</time></trkpt><trkpt lat="55.8319224" lon="48.9368954"><time>2021-04-17T09:01:13.137</time></trkpt><trkpt lat="55.8319485" lon="48.9370167"><time>2021-04-17T09:01:15.200</time></trkpt><trkpt lat="55.8319654" lon="48.9371300"><time>2021-04-17T09:01:17.153</time></trkpt><trkpt lat="55.8319834" lon="48.9372429"><time>2021-04-17T09:01:19.143</time></trkpt><trkpt lat="55.8319885" lon="48.9373524"><time>2021-04-17T09:01:21.133</time></trkpt><trkpt lat="55.8319892" lon="48.9374658"><time>2021-04-17T09:01:23.133</time></trkpt><trkpt lat="55.8319769" lon="48.9375727"><time>2021-04-17T09:01:25.140</time></trkpt><trkpt lat="55.8319705" lon="48.9376715"><time>2021-04-17T09:01:27.153</time></trkpt><trkpt lat="55.8319683" lon="48.9377834"><time>2021-04-17T09:01:29.173</time></trkpt><trkpt lat="55.8319664" lon="48.9378861"><time>2021-04-17T09:01:31.170</time></trkpt><trkpt lat="55.8319669" lon="48.9379771"><time>2021-04-17T09:01:33.143</time></trkpt><trkpt lat="55.8319407" lon="48.9380657"><time>2021-04-17T09:01:36.153</time></trkpt><trkpt lat="55.8319318" lon="48.9381597"><time>2021-04-17T09:01:58.120</time></trkpt><trkpt lat="55.8319401" lon="48.9382615"><time>2021-04-17T09:02:02.130</time></trkpt><trkpt lat="55.8319509" lon="48.9383686"><time>2021-04-17T09:02:04.130</time></trkpt><trkpt lat="55.8319436" lon="48.9384736"><time>2021-04-17T09:02:06.130</time></trkpt><trkpt lat="55.8319450" lon="48.9385700"><time>2021-04-17T09:02:09.117</time></trkpt><trkpt lat="55.8319713" lon="48.9386665"><time>2021-04-17T09:02:11.117</time></trkpt><trkpt lat="55.8319944" lon="48.9387722"><time>2021-04-17T09:02:14.120</time></trkpt><trkpt lat="55.8319934" lon="48.9388597"><time>2021-04-17T09:02:16.137</time></trkpt><trkpt lat="55.8319928" lon="48.9389552"><time>2021-04-17T09:02:18.117</time></trkpt><trkpt lat="55.8320114" lon="48.9390533"><time>2021-04-17T09:02:20.127</time></trkpt><trkpt lat="55.8320351" lon="48.9391326"><time>2021-04-17T09:02:22.120</time></trkpt><trkpt lat="55.8320664" lon="48.9392440"><time>2021-04-17T09:02:25.140</time></trkpt><trkpt lat="55.8320658" lon="48.9393528"><time>2021-04-17T09:02:28.117</time></trkpt><trkpt lat="55.8320286" lon="48.9394177"><time>2021-04-17T09:02:31.147</time></trkpt><trkpt lat="55.8319958" lon="48.9394809"><time>2021-04-17T09:02:36.130</time></trkpt><trkpt lat="55.8319623" lon="48.9395343"><time>2021-04-17T09:02:40.143</time></trkpt><trkpt lat="55.8319213" lon="48.9395806"><time>2021-04-17T09:02:44.140</time></trkpt><trkpt lat="55.8319018" lon="48.9396667"><time>2021-04-17T09:02:53.123</time></trkpt><trkpt lat="55.8318825" lon="48.9397480"><time>2021-04-17T09:02:59.177</time></trkpt><trkpt lat="55.8318471" lon="48.9398093"><time>2021-04-17T09:03:08.163</time></trkpt><trkpt lat="55.8318426" lon="48.9398978"><time>2021-04-17T09:03:10.170</time></trkpt><trkpt lat="55.8318370" lon="48.9399866"><time>2021-04-17T09:03:12.137</time></trkpt><trkpt lat="55.8318240" lon="48.9400851"><time>2021-04-17T09:03:14.133</time></trkpt><trkpt lat="55.8318171" lon="48.9401752"><time>2021-04-17T09:03:16.147</time></trkpt><trkpt lat="55.8318048" lon="48.9402671"><time>2021-04-17T09:03:18.153</time></trkpt><trkpt lat="55.8317936" lon="48.9403560"><time>2021-04-17T09:03:20.150</time></trkpt><trkpt lat="55.8317865" lon="48.9404529"><time>2021-04-17T09:03:22.137</time></trkpt><trkpt lat="55.8317782" lon="48.9405391"><time>2021-04-17T09:03:24.170</time></trkpt><trkpt lat="55.8317705" lon="48.9406187"><time>2021-04-17T09:03:26.220</time></trkpt><trkpt lat="55.8317658" lon="48.9407052"><time>2021-04-17T09:03:28.153</time></trkpt><trkpt lat="55.8317713" lon="48.9408050"><time>2021-04-17T09:03:34.133</time></trkpt><trkpt lat="55.8317758" lon="48.9408857"><time>2021-04-17T09:03:42.153</time></trkpt><trkpt lat="55.8317418" lon="48.9409668"><time>2021-04-17T09:03:46.153</time></trkpt><trkpt lat="55.8317277" lon="48.9410792"><time>2021-04-17T09:03:49.150</time></trkpt><trkpt lat="55.8317205" lon="48.9411753"><time>2021-04-17T09:03:51.183</time></trkpt><trkpt lat="55.8317129" lon="48.9412690"><time>2021-04-17T09:03:54.147</time></trkpt><trkpt lat="55.8316856" lon="48.9413609"><time>2021-04-17T09:04:01.170</time></trkpt><trkpt lat="55.8316490" lon="48.9414137"><time>2021-04-17T09:04:06.140</time></trkpt><trkpt lat="55.8316442" lon="48.9414271"><time>2021-04-17T09:10:41.583</time></trkpt><trkpt lat="55.8323695" lon="48.9458569"><time>2021-04-17T09:10:43.963</time></trkpt><trkpt lat="55.8324187" lon="48.9458306"><time>2021-04-17T09:10:51.990</time></trkpt><trkpt lat="55.8324780" lon="48.9458174"><time>2021-04-17T09:10:54.980</time></trkpt><trkpt lat="55.8325163" lon="48.9457711"><time>2021-04-17T09:10:56.973</time></trkpt><trkpt lat="55.8325653" lon="48.9457637"><time>2021-04-17T09:10:58.987</time></trkpt><trkpt lat="55.8326245" lon="48.9457018"><time>2021-04-17T09:11:01.473</time></trkpt><trkpt lat="55.8326799" lon="48.9456526"><time>2021-04-17T09:11:02.953</time></trkpt><trkpt lat="55.8327416" lon="48.9456847"><time>2021-04-17T09:11:04.970</time></trkpt><trkpt lat="55.8327859" lon="48.9456998"><time>2021-04-17T09:11:06.973</time></trkpt><trkpt lat="55.8328324" lon="48.9457392"><time>2021-04-17T09:11:12.110</time></trkpt><trkpt lat="55.8328797" lon="48.9457813"><time>2021-04-17T09:11:14.970</time></trkpt><trkpt lat="55.8329327" lon="48.9458353"><time>2021-04-17T09:11:16.957</time></trkpt><trkpt lat="55.8329792" lon="48.9458718"><time>2021-04-17T09:11:18.970</time></trkpt><trkpt lat="55.8330455" lon="48.9458668"><time>2021-04-17T09:11:23.977</time></trkpt><trkpt lat="55.8330955" lon="48.9459005"><time>2021-04-17T09:11:27.983</time></trkpt><trkpt lat="55.8331423" lon="48.9459458"><time>2021-04-17T09:11:31.987</time></trkpt><trkpt lat="55.8332024" lon="48.9460040"><time>2021-04-17T09:11:35.983</time></trkpt><trkpt lat="55.8332624" lon="48.9460355"><time>2021-04-17T09:11:37.987</time></trkpt><trkpt lat="55.8333144" lon="48.9460618"><time>2021-04-17T09:11:39.987</time></trkpt><trkpt lat="55.8333758" lon="48.9461220"><time>2021-04-17T09:11:41.980</time></trkpt><trkpt lat="55.8334364" lon="48.9461848"><time>2021-04-17T09:11:43.983</time></trkpt><trkpt lat="55.8334990" lon="48.9462362"><time>2021-04-17T09:11:45.987</time></trkpt><trkpt lat="55.8335626" lon="48.9462750"><time>2021-04-17T09:11:47.983</time></trkpt><trkpt lat="55.8336253" lon="48.9463262"><time>2021-04-17T09:11:49.987</time></trkpt><trkpt lat="55.8336897" lon="48.9463588"><time>2021-04-17T09:11:51.973</time></trkpt><trkpt lat="55.8337301" lon="48.9464315"><time>2021-04-17T09:11:53.983</time></trkpt><trkpt lat="55.8336714" lon="48.9464244"><time>2021-04-17T09:11:55.970</time></trkpt><trkpt lat="55.8337319" lon="48.9464533"><time>2021-04-17T09:11:57.980</time></trkpt><trkpt lat="55.8337821" lon="48.9465067"><time>2021-04-17T09:12:01.003</time></trkpt><trkpt lat="55.8338287" lon="48.9465064"><time>2021-04-17T09:12:02.973</time></trkpt><trkpt lat="55.8338742" lon="48.9465167"><time>2021-04-17T09:12:05.980</time></trkpt><trkpt lat="55.8339222" lon="48.9465206"><time>2021-04-17T09:12:08.967</time></trkpt><trkpt lat="55.8339669" lon="48.9465288"><time>2021-04-17T09:12:11.967</time></trkpt><trkpt lat="55.8340137" lon="48.9465704"><time>2021-04-17T09:12:17.963</time></trkpt><trkpt lat="55.8340364" lon="48.9466542"><time>2021-04-17T09:12:25.993</time></trkpt><trkpt lat="55.8340780" lon="48.9467090"><time>2021-04-17T09:12:29.990</time></trkpt><trkpt lat="55.8340834" lon="48.9468172"><time>2021-04-17T09:12:48</time></trkpt><trkpt lat="55.8340501" lon="48.9469165"><time>2021-04-17T09:12:51.017</time></trkpt><trkpt lat="55.8340241" lon="48.9470040"><time>2021-04-17T09:12:53.020</time></trkpt><trkpt lat="55.8339798" lon="48.9471035"><time>2021-04-17T09:12:54.997</time></trkpt><trkpt lat="55.8339396" lon="48.9472335"><time>2021-04-17T09:12:57.013</time></trkpt><trkpt lat="55.8339131" lon="48.9473852"><time>2021-04-17T09:12:59</time></trkpt><trkpt lat="55.8338733" lon="48.9475115"><time>2021-04-17T09:13:01.020</time></trkpt><trkpt lat="55.8338352" lon="48.9476292"><time>2021-04-17T09:13:02.967</time></trkpt><trkpt lat="55.8338133" lon="48.9477393"><time>2021-04-17T09:13:04.993</time></trkpt><trkpt lat="55.8337838" lon="48.9478579"><time>2021-04-17T09:13:07.083</time></trkpt><trkpt lat="55.8337506" lon="48.9479335"><time>2021-04-17T09:13:08.977</time></trkpt><trkpt lat="55.8337044" lon="48.9480133"><time>2021-04-17T09:13:10.987</time></trkpt><trkpt lat="55.8336798" lon="48.9481012"><time>2021-04-17T09:13:15.977</time></trkpt><trkpt lat="55.8336745" lon="48.9481837"><time>2021-04-17T09:13:18.997</time></trkpt><trkpt lat="55.8336846" lon="48.9482776"><time>2021-04-17T09:13:22.990</time></trkpt><trkpt lat="55.8337195" lon="48.9483479"><time>2021-04-17T09:13:26.980</time></trkpt><trkpt lat="55.8337684" lon="48.9483328"><time>2021-04-17T09:13:43.957</time></trkpt><trkpt lat="55.8338207" lon="48.9483822"><time>2021-04-17T09:13:46.990</time></trkpt><trkpt lat="55.8338853" lon="48.9484835"><time>2021-04-17T09:13:48.980</time></trkpt><trkpt lat="55.8339335" lon="48.9485707"><time>2021-04-17T09:13:50.973</time></trkpt><trkpt lat="55.8339747" lon="48.9486556"><time>2021-04-17T09:13:52.987</time></trkpt><trkpt lat="55.8339781" lon="48.9487371"><time>2021-04-17T09:13:54.977</time></trkpt><trkpt lat="55.8339543" lon="48.9488139"><time>2021-04-17T09:13:56.970</time></trkpt><trkpt lat="55.8339293" lon="48.9488981"><time>2021-04-17T09:13:59.980</time></trkpt><trkpt lat="55.8339012" lon="48.9489816"><time>2021-04-17T09:14:07</time></trkpt><trkpt lat="55.8338878" lon="48.9490436"><time>2021-04-17T09:15:05.967</time></trkpt><trkpt lat="55.8342269" lon="48.9498994"><time>2021-04-17T09:15:08.153</time></trkpt><trkpt lat="55.8342754" lon="48.9499219"><time>2021-04-17T09:15:16.133</time></trkpt><trkpt lat="55.8343376" lon="48.9499235"><time>2021-04-17T09:15:19.150</time></trkpt><trkpt lat="55.8343941" lon="48.9499933"><time>2021-04-17T09:15:21.160</time></trkpt><trkpt lat="55.8344513" lon="48.9500580"><time>2021-04-17T09:15:23.170</time></trkpt><trkpt lat="55.8345007" lon="48.9501478"><time>2021-04-17T09:15:25.143</time></trkpt><trkpt lat="55.8345312" lon="48.9502172"><time>2021-04-17T09:15:27.137</time></trkpt><trkpt lat="55.8345728" lon="48.9502743"><time>2021-04-17T09:15:30.157</time></trkpt><trkpt lat="55.8345982" lon="48.9503658"><time>2021-04-17T09:15:36.160</time></trkpt><trkpt lat="55.8346284" lon="48.9504493"><time>2021-04-17T09:15:40.167</time></trkpt><trkpt lat="55.8346595" lon="48.9505335"><time>2021-04-17T09:15:44.160</time></trkpt><trkpt lat="55.8346789" lon="48.9506324"><time>2021-04-17T09:15:48.163</time></trkpt><trkpt lat="55.8347165" lon="48.9507171"><time>2021-04-17T09:15:51.170</time></trkpt><trkpt lat="55.8347379" lon="48.9507906"><time>2021-04-17T09:15:53.173</time></trkpt><trkpt lat="55.8347696" lon="48.9508795"><time>2021-04-17T09:15:56.183</time></trkpt><trkpt lat="55.8347853" lon="48.9509589"><time>2021-04-17T09:15:59.170</time></trkpt><trkpt lat="55.8347930" lon="48.9510379"><time>2021-04-17T09:16:02.200</time></trkpt><trkpt lat="55.8348107" lon="48.9511270"><time>2021-04-17T09:16:12.207</time></trkpt><trkpt lat="55.8348325" lon="48.9512163"><time>2021-04-17T09:16:15.173</time></trkpt><trkpt lat="55.8348588" lon="48.9513100"><time>2021-04-17T09:16:18.160</time></trkpt><trkpt lat="55.8348848" lon="48.9513992"><time>2021-04-17T09:16:22.167</time></trkpt><trkpt lat="55.8348926" lon="48.9514818"><time>2021-04-17T09:16:25.180</time></trkpt><trkpt lat="55.8349062" lon="48.9515895"><time>2021-04-17T09:16:29.147</time></trkpt><trkpt lat="55.8349145" lon="48.9516689"><time>2021-04-17T09:16:31.157</time></trkpt><trkpt lat="55.8349386" lon="48.9517583"><time>2021-04-17T09:16:34.150</time></trkpt><trkpt lat="55.8349596" lon="48.9518529"><time>2021-04-17T09:16:36.140</time></trkpt><trkpt lat="55.8349828" lon="48.9519569"><time>2021-04-17T09:16:38.147</time></trkpt><trkpt lat="55.8349997" lon="48.9520586"><time>2021-04-17T09:16:40.157</time></trkpt><trkpt lat="55.8350077" lon="48.9521570"><time>2021-04-17T09:16:42.170</time></trkpt><trkpt lat="55.8350162" lon="48.9522479"><time>2021-04-17T09:16:45.177</time></trkpt><trkpt lat="55.8350321" lon="48.9523290"><time>2021-04-17T09:16:48.143</time></trkpt><trkpt lat="55.8350500" lon="48.9524110"><time>2021-04-17T09:16:51.143</time></trkpt><trkpt lat="55.8350764" lon="48.9525071"><time>2021-04-17T09:16:54.153</time></trkpt><trkpt lat="55.8350769" lon="48.9526217"><time>2021-04-17T09:16:56.197</time></trkpt><trkpt lat="55.8350727" lon="48.9527280"><time>2021-04-17T09:16:58.160</time></trkpt><trkpt lat="55.8350846" lon="48.9528443"><time>2021-04-17T09:17:00.187</time></trkpt><trkpt lat="55.8351208" lon="48.9529501"><time>2021-04-17T09:17:02.187</time></trkpt><trkpt lat="55.8351686" lon="48.9529991"><time>2021-04-17T09:17:04.177</time></trkpt><trkpt lat="55.8352218" lon="48.9530390"><time>2021-04-17T09:17:06.157</time></trkpt><trkpt lat="55.8352789" lon="48.9530859"><time>2021-04-17T09:17:08.147</time></trkpt><trkpt lat="55.8353414" lon="48.9531225"><time>2021-04-17T09:17:10.153</time></trkpt><trkpt lat="55.8354062" lon="48.9531181"><time>2021-04-17T09:17:12.177</time></trkpt><trkpt lat="55.8354552" lon="48.9531377"><time>2021-04-17T09:17:14.167</time></trkpt><trkpt lat="55.8354892" lon="48.9532076"><time>2021-04-17T09:17:25.157</time></trkpt><trkpt lat="55.8355400" lon="48.9532534"><time>2021-04-17T09:17:28.170</time></trkpt><trkpt lat="55.8355799" lon="48.9532141"><time>2021-04-17T09:17:31.157</time></trkpt><trkpt lat="55.8356329" lon="48.9532089"><time>2021-04-17T09:17:36.150</time></trkpt><trkpt lat="55.8356781" lon="48.9532655"><time>2021-04-17T09:17:41.153</time></trkpt><trkpt lat="55.8357052" lon="48.9533339"><time>2021-04-17T09:17:43.167</time></trkpt><trkpt lat="55.8357248" lon="48.9534300"><time>2021-04-17T09:17:45.170</time></trkpt><trkpt lat="55.8357274" lon="48.9535302"><time>2021-04-17T09:17:47.167</time></trkpt><trkpt lat="55.8357015" lon="48.9536307"><time>2021-04-17T09:17:49.157</time></trkpt><trkpt lat="55.8356818" lon="48.9537121"><time>2021-04-17T09:17:51.183</time></trkpt><trkpt lat="55.8356623" lon="48.9538000"><time>2021-04-17T09:17:53.173</time></trkpt><trkpt lat="55.8356341" lon="48.9539085"><time>2021-04-17T09:17:55.170</time></trkpt><trkpt lat="55.8356271" lon="48.9540194"><time>2021-04-17T09:17:57.167</time></trkpt><trkpt lat="55.8355981" lon="48.9541242"><time>2021-04-17T09:17:59.163</time></trkpt><trkpt lat="55.8355695" lon="48.9542263"><time>2021-04-17T09:18:01.170</time></trkpt><trkpt lat="55.8355385" lon="48.9543185"><time>2021-04-17T09:18:03.167</time></trkpt><trkpt lat="55.8355126" lon="48.9543909"><time>2021-04-17T09:18:05.167</time></trkpt><trkpt lat="55.8354659" lon="48.9544489"><time>2021-04-17T09:18:07.163</time></trkpt><trkpt lat="55.8354013" lon="48.9545495"><time>2021-04-17T09:18:09.140</time></trkpt><trkpt lat="55.8353682" lon="48.9546073"><time>2021-04-17T09:18:10.147</time></trkpt><trkpt lat="55.8353400" lon="48.9546742"><time>2021-04-17T09:18:11.157</time></trkpt><trkpt lat="55.8352875" lon="48.9547786"><time>2021-04-17T09:18:13.163</time></trkpt><trkpt lat="55.8352326" lon="48.9548824"><time>2021-04-17T09:18:15.177</time></trkpt><trkpt lat="55.8352008" lon="48.9549950"><time>2021-04-17T09:18:17.163</time></trkpt><trkpt lat="55.8351843" lon="48.9550928"><time>2021-04-17T09:18:19.147</time></trkpt><trkpt lat="55.8351607" lon="48.9551903"><time>2021-04-17T09:18:21.150</time></trkpt><trkpt lat="55.8351505" lon="48.9553022"><time>2021-04-17T09:18:23.160</time></trkpt><trkpt lat="55.8351225" lon="48.9553922"><time>2021-04-17T09:18:25.173</time></trkpt><trkpt lat="55.8351029" lon="48.9554676"><time>2021-04-17T09:18:27.183</time></trkpt><trkpt lat="55.8350838" lon="48.9555490"><time>2021-04-17T09:18:29.170</time></trkpt><trkpt lat="55.8350628" lon="48.9556286"><time>2021-04-17T09:18:31.170</time></trkpt><trkpt lat="55.8350495" lon="48.9557083"><time>2021-04-17T09:18:33.157</time></trkpt><trkpt lat="55.8350141" lon="48.9557755"><time>2021-04-17T09:18:35.153</time></trkpt><trkpt lat="55.8349797" lon="48.9558600"><time>2021-04-17T09:18:37.157</time></trkpt><trkpt lat="55.8349488" lon="48.9559387"><time>2021-04-17T09:18:39.137</time></trkpt><trkpt lat="55.8349131" lon="48.9560010"><time>2021-04-17T09:18:41.167</time></trkpt><trkpt lat="55.8348855" lon="48.9560645"><time>2021-04-17T09:18:43.143</time></trkpt><trkpt lat="55.8348733" lon="48.9561486"><time>2021-04-17T09:18:45.167</time></trkpt><trkpt lat="55.8348487" lon="48.9562583"><time>2021-04-17T09:18:48.147</time></trkpt><trkpt lat="55.8348385" lon="48.9563392"><time>2021-04-17T09:18:50.163</time></trkpt><trkpt lat="55.8348258" lon="48.9564606"><time>2021-04-17T09:18:53.137</time></trkpt><trkpt lat="55.8348076" lon="48.9565796"><time>2021-04-17T09:18:56.173</time></trkpt><trkpt lat="55.8347938" lon="48.9567183"><time>2021-04-17T09:18:58.150</time></trkpt><trkpt lat="55.8347783" lon="48.9568389"><time>2021-04-17T09:19:00.150</time></trkpt><trkpt lat="55.8347656" lon="48.9569531"><time>2021-04-17T09:19:02.137</time></trkpt><trkpt lat="55.8347386" lon="48.9570740"><time>2021-04-17T09:19:04.170</time></trkpt><trkpt lat="55.8346849" lon="48.9571880"><time>2021-04-17T09:19:06.167</time></trkpt><trkpt lat="55.8346479" lon="48.9573065"><time>2021-04-17T09:19:08.187</time></trkpt><trkpt lat="55.8345075" lon="48.9578453"><time>2021-04-17T09:19:36.627</time></trkpt></trkseg></trk></gpx>